PWSweather.com
Personal Weather Stations
Station Observations
DL5ARK
SonnebergDE

SonnebergDE

Lat: 50.34904861, Lon: 11.18112087

Elevation: 1214

Station Type: Selfmade

http://www.sumbarg.de

High Low Average
Temperature 33.9°F1.1°C 30.3°F-0.9°C 31.9°F-0.1°C
Dew Point 36.8°F2.7°C 34.4°F1.3°C 35.7°F2.1°C
Winds 6.0 mph 9.7 kmh Calm Calm Calm WCalm W
Wind Gusts 6.0 mph9.7 kmh -- --
Humidity 91% 85% 88%
Pressure 29.63 in1003.4 mb 29.52 in999.7 mb -
Precipitation 0.00 in0.0 mm - -
Hour Temp Dew Point Humidity Winds Wind Gusts Pressure Precip Precip Rate Daily Precip Total
12:00 AM 31.3°F-0.4°C 36.1°F2.3°C 89% Calm Calm -- 29.59 in1002.0 mb 0.00 in0.0 mm 0.00 in0.0 mm 0.00 in0.0 mm
12:03 AM 31.6°F-0.2°C 36.1°F2.3°C 89% Calm Calm -- 29.59 in1002.0 mb 0.00 in0.0 mm 0.00 in0.0 mm 0.00 in0.0 mm
12:06 AM 31.6°F-0.2°C 36.1°F2.3°C 89% Calm Calm -- 29.58 in1001.7 mb 0.00 in0.0 mm 0.00 in0.0 mm 0.00 in0.0 mm
12:09 AM 31.6°F-0.2°C 36.4°F2.4°C 89% Calm Calm -- 29.59 in1002.0 mb 0.00 in0.0 mm 0.00 in0.0 mm 0.00 in0.0 mm
12:12 AM 31.6°F-0.2°C 36.3°F2.4°C 89% Calm Calm -- 29.58 in1001.7 mb 0.00 in0.0 mm 0.00 in0.0 mm 0.00 in0.0 mm
12:15 AM 31.7°F-0.2°C 36.3°F2.4°C 89% Calm Calm -- 29.59 in1002.0 mb 0.00 in0.0 mm 0.00 in0.0 mm 0.00 in0.0 mm
12:18 AM 31.7°F-0.2°C 36.3°F2.4°C 89% Calm Calm -- 29.58 in1001.7 mb 0.00 in0.0 mm 0.00 in0.0 mm 0.00 in0.0 mm
12:21 AM 31.6°F-0.2°C 36.2°F2.3°C 89% Calm Calm -- 29.59 in1002.0 mb 0.00 in0.0 mm 0.00 in0.0 mm 0.00 in0.0 mm
12:24 AM 31.4°F-0.3°C 36.2°F2.3°C 90% Calm Calm -- 29.58 in1001.7 mb 0.00 in0.0 mm 0.00 in0.0 mm 0.00 in0.0 mm
12:27 AM 31.6°F-0.2°C 36.4°F2.4°C 90% Calm Calm -- 29.59 in1002.0 mb 0.00 in0.0 mm 0.00 in0.0 mm 0.00 in0.0 mm
12:30 AM 31.6°F-0.2°C 36.5°F2.5°C 90% Calm Calm -- 29.58 in1001.7 mb 0.00 in0.0 mm 0.00 in0.0 mm 0.00 in0.0 mm
12:33 AM 31.7°F-0.2°C 36.3°F2.4°C 89% Calm Calm -- 29.57 in1001.4 mb 0.00 in0.0 mm 0.00 in0.0 mm 0.00 in0.0 mm
12:36 AM 31.7°F-0.2°C 36.3°F2.4°C 90% Calm Calm -- 29.58 in1001.7 mb 0.00 in0.0 mm 0.00 in0.0 mm 0.00 in0.0 mm
12:39 AM 31.7°F-0.2°C 36.5°F2.5°C 89% Calm Calm -- 29.57 in1001.4 mb 0.00 in0.0 mm 0.00 in0.0 mm 0.00 in0.0 mm
12:42 AM 31.7°F-0.2°C 36.3°F2.4°C 90% Calm Calm -- 29.57 in1001.4 mb 0.00 in0.0 mm 0.00 in0.0 mm 0.00 in0.0 mm
12:45 AM 31.8°F-0.1°C 36.4°F2.4°C 89% Calm Calm -- 29.57 in1001.4 mb 0.00 in0.0 mm 0.00 in0.0 mm 0.00 in0.0 mm
12:48 AM 31.8°F-0.1°C 36.1°F2.3°C 90% Calm Calm -- 29.57 in1001.4 mb 0.00 in0.0 mm 0.00 in0.0 mm 0.00 in0.0 mm
12:51 AM 31.8°F-0.1°C 36.3°F2.4°C 89% Calm Calm -- 29.57 in1001.4 mb 0.00 in0.0 mm 0.00 in0.0 mm 0.00 in0.0 mm
12:54 AM 31.9°F-0.1°C 36.1°F2.3°C 89% Calm Calm -- 29.57 in1001.4 mb 0.00 in0.0 mm 0.00 in0.0 mm 0.00 in0.0 mm
12:57 AM 31.9°F-0.1°C 36.4°F2.4°C 90% Calm Calm -- 29.57 in1001.4 mb 0.00 in0.0 mm 0.00 in0.0 mm 0.00 in0.0 mm
01:00 AM 31.9°F-0.1°C 36.3°F2.4°C 89% Calm Calm -- 29.57 in1001.4 mb 0.00 in0.0 mm 0.00 in0.0 mm 0.00 in0.0 mm
01:03 AM 31.8°F-0.1°C 36.5°F2.5°C 90% Calm Calm -- 29.57 in1001.4 mb 0.00 in0.0 mm 0.00 in0.0 mm 0.00 in0.0 mm
01:06 AM 31.9°F-0.1°C 36.2°F2.3°C 89% Calm Calm -- 29.57 in1001.4 mb 0.00 in0.0 mm 0.00 in0.0 mm 0.00 in0.0 mm
01:09 AM 31.9°F-0.1°C 36.4°F2.4°C 90% Calm Calm -- 29.57 in1001.4 mb 0.00 in0.0 mm 0.00 in0.0 mm 0.00 in0.0 mm
01:12 AM 32.0°F0.0°C 36.3°F2.4°C 90% Calm Calm -- 29.57 in1001.4 mb 0.00 in0.0 mm 0.00 in0.0 mm 0.00 in0.0 mm
01:15 AM 32.1°F0.1°C 36.6°F2.6°C 90% Calm Calm -- 29.57 in1001.4 mb 0.00 in0.0 mm 0.00 in0.0 mm 0.00 in0.0 mm
01:18 AM 32.1°F0.1°C 36.4°F2.4°C 89% Calm Calm -- 29.57 in1001.4 mb 0.00 in0.0 mm 0.00 in0.0 mm 0.00 in0.0 mm
01:21 AM 32.1°F0.1°C 36.6°F2.6°C 90% Calm Calm -- 29.57 in1001.4 mb 0.00 in0.0 mm 0.00 in0.0 mm 0.00 in0.0 mm
01:24 AM 32.0°F0.0°C 36.3°F2.4°C 89% Calm Calm -- 29.57 in1001.4 mb 0.00 in0.0 mm 0.00 in0.0 mm 0.00 in0.0 mm
01:27 AM 32.1°F0.1°C 36.3°F2.4°C 90% Calm Calm -- 29.57 in1001.4 mb 0.00 in0.0 mm 0.00 in0.0 mm 0.00 in0.0 mm
01:30 AM 32.0°F0.0°C 36.4°F2.4°C 90% Calm Calm -- 29.57 in1001.4 mb 0.00 in0.0 mm 0.00 in0.0 mm 0.00 in0.0 mm
01:33 AM 32.1°F0.1°C 36.3°F2.4°C 89% Calm Calm -- 29.57 in1001.4 mb 0.00 in0.0 mm 0.00 in0.0 mm 0.00 in0.0 mm
01:36 AM 32.1°F0.1°C 36.6°F2.6°C 90% Calm Calm -- 29.57 in1001.4 mb 0.00 in0.0 mm 0.00 in0.0 mm 0.00 in0.0 mm
01:39 AM 32.1°F0.1°C 36.6°F2.6°C 90% Calm Calm -- 29.57 in1001.4 mb 0.00 in0.0 mm 0.00 in0.0 mm 0.00 in0.0 mm
01:42 AM 32.0°F0.0°C 36.7°F2.6°C 90% Calm Calm -- 29.57 in1001.4 mb 0.00 in0.0 mm 0.00 in0.0 mm 0.00 in0.0 mm
01:45 AM 32.0°F0.0°C 36.4°F2.4°C 90% Calm Calm -- 29.57 in1001.4 mb 0.00 in0.0 mm 0.00 in0.0 mm 0.00 in0.0 mm
01:48 AM 32.0°F0.0°C 36.6°F2.6°C 90% Calm Calm -- 29.57 in1001.4 mb 0.00 in0.0 mm 0.00 in0.0 mm 0.00 in0.0 mm
01:51 AM 32.1°F0.1°C 36.6°F2.6°C 90% Calm Calm -- 29.57 in1001.4 mb 0.00 in0.0 mm 0.00 in0.0 mm 0.00 in0.0 mm
01:54 AM 32.1°F0.1°C 36.6°F2.6°C 90% Calm Calm -- 29.57 in1001.4 mb 0.00 in0.0 mm 0.00 in0.0 mm 0.00 in0.0 mm
01:57 AM 32.1°F0.1°C 36.5°F2.5°C 90% Calm Calm -- 29.57 in1001.4 mb 0.00 in0.0 mm 0.00 in0.0 mm 0.00 in0.0 mm
02:00 AM 32.0°F0.0°C 36.4°F2.4°C 90% Calm Calm -- 29.56 in1001.0 mb 0.00 in0.0 mm 0.00 in0.0 mm 0.00 in0.0 mm
02:03 AM 31.9°F-0.1°C 36.4°F2.4°C 90% Calm Calm -- 29.57 in1001.4 mb 0.00 in0.0 mm 0.00 in0.0 mm 0.00 in0.0 mm
02:06 AM 31.9°F-0.1°C 36.4°F2.4°C 90% Calm Calm -- 29.56 in1001.0 mb 0.00 in0.0 mm 0.00 in0.0 mm 0.00 in0.0 mm
02:09 AM 31.9°F-0.1°C 36.5°F2.5°C 90% 0.4 mph W0.6 kmh W 0.4 mph0.6 kmh 29.57 in1001.4 mb 0.00 in0.0 mm 0.00 in0.0 mm 0.00 in0.0 mm
02:12 AM 31.8°F-0.1°C 36.4°F2.4°C 89% Calm Calm -- 29.57 in1001.4 mb 0.00 in0.0 mm 0.00 in0.0 mm 0.00 in0.0 mm
02:15 AM 31.8°F-0.1°C 36.4°F2.4°C 90% Calm Calm -- 29.57 in1001.4 mb 0.00 in0.0 mm 0.00 in0.0 mm 0.00 in0.0 mm
02:18 AM 31.8°F-0.1°C 36.5°F2.5°C 90% Calm Calm -- 29.57 in1001.4 mb 0.00 in0.0 mm 0.00 in0.0 mm 0.00 in0.0 mm
02:21 AM 31.7°F-0.2°C 36.3°F2.4°C 90% Calm Calm -- 29.57 in1001.4 mb 0.00 in0.0 mm 0.00 in0.0 mm 0.00 in0.0 mm
02:24 AM 31.7°F-0.2°C 36.3°F2.4°C 90% Calm Calm -- 29.57 in1001.4 mb 0.00 in0.0 mm 0.00 in0.0 mm 0.00 in0.0 mm
02:27 AM 31.7°F-0.2°C 36.3°F2.4°C 89% Calm Calm -- 29.57 in1001.4 mb 0.00 in0.0 mm 0.00 in0.0 mm 0.00 in0.0 mm
02:30 AM 31.7°F-0.2°C 36.3°F2.4°C 90% Calm Calm -- 29.57 in1001.4 mb 0.00 in0.0 mm 0.00 in0.0 mm 0.00 in0.0 mm
02:33 AM 31.6°F-0.2°C 36.3°F2.4°C 89% Calm Calm -- 29.57 in1001.4 mb 0.00 in0.0 mm 0.00 in0.0 mm 0.00 in0.0 mm
02:36 AM 31.7°F-0.2°C 36.4°F2.4°C 90% Calm Calm -- 29.57 in1001.4 mb 0.00 in0.0 mm 0.00 in0.0 mm 0.00 in0.0 mm
02:39 AM 31.6°F-0.2°C 36.3°F2.4°C 90% Calm Calm -- 29.57 in1001.4 mb 0.00 in0.0 mm 0.00 in0.0 mm 0.00 in0.0 mm
02:42 AM 31.6°F-0.2°C 36.0°F2.2°C 90% Calm Calm -- 29.57 in1001.4 mb 0.00 in0.0 mm 0.00 in0.0 mm 0.00 in0.0 mm
02:45 AM 31.4°F-0.3°C 36.2°F2.3°C 90% Calm Calm -- 29.57 in1001.4 mb 0.00 in0.0 mm 0.00 in0.0 mm 0.00 in0.0 mm
02:48 AM 31.3°F-0.4°C 36.5°F2.5°C 90% Calm Calm -- 29.57 in1001.4 mb 0.00 in0.0 mm 0.00 in0.0 mm 0.00 in0.0 mm
02:51 AM 31.3°F-0.4°C 36.1°F2.3°C 89% Calm Calm -- 29.57 in1001.4 mb 0.00 in0.0 mm 0.00 in0.0 mm 0.00 in0.0 mm
02:54 AM 31.2°F-0.4°C 36.1°F2.3°C 90% Calm Calm -- 29.57 in1001.4 mb 0.00 in0.0 mm 0.00 in0.0 mm 0.00 in0.0 mm
02:57 AM 31.3°F-0.4°C 36.0°F2.2°C 90% Calm Calm -- 29.57 in1001.4 mb 0.00 in0.0 mm 0.00 in0.0 mm 0.00 in0.0 mm
03:00 AM 31.3°F-0.4°C 35.8°F2.1°C 88% Calm Calm -- 29.57 in1001.4 mb 0.00 in0.0 mm 0.00 in0.0 mm 0.00 in0.0 mm
03:03 AM 31.3°F-0.4°C 36.1°F2.3°C 90% Calm Calm -- 29.57 in1001.4 mb 0.00 in0.0 mm 0.00 in0.0 mm 0.00 in0.0 mm
03:06 AM 31.2°F-0.4°C 35.8°F2.1°C 90% Calm Calm -- 29.57 in1001.4 mb 0.00 in0.0 mm 0.00 in0.0 mm 0.00 in0.0 mm
03:09 AM 31.0°F-0.6°C 36.0°F2.2°C 90% Calm Calm -- 29.57 in1001.4 mb 0.00 in0.0 mm 0.00 in0.0 mm 0.00 in0.0 mm
03:12 AM 30.7°F-0.7°C 35.9°F2.2°C 90% Calm Calm -- 29.56 in1001.0 mb 0.00 in0.0 mm 0.00 in0.0 mm 0.00 in0.0 mm
03:15 AM 30.5°F-0.8°C 35.8°F2.1°C 90% Calm Calm -- 29.56 in1001.0 mb 0.00 in0.0 mm 0.00 in0.0 mm 0.00 in0.0 mm
03:18 AM 30.7°F-0.7°C 35.6°F2.0°C 90% Calm Calm -- 29.56 in1001.0 mb 0.00 in0.0 mm 0.00 in0.0 mm 0.00 in0.0 mm
03:21 AM 31.0°F-0.6°C 35.8°F2.1°C 90% Calm Calm -- 29.56 in1001.0 mb 0.00 in0.0 mm 0.00 in0.0 mm 0.00 in0.0 mm
03:24 AM 31.0°F-0.6°C 35.9°F2.2°C 90% Calm Calm -- 29.57 in1001.4 mb 0.00 in0.0 mm 0.00 in0.0 mm 0.00 in0.0 mm
03:27 AM 31.1°F-0.5°C 35.6°F2.0°C 90% Calm Calm -- 29.56 in1001.0 mb 0.00 in0.0 mm 0.00 in0.0 mm 0.00 in0.0 mm
03:30 AM 31.1°F-0.5°C 35.9°F2.2°C 90% Calm Calm -- 29.56 in1001.0 mb 0.00 in0.0 mm 0.00 in0.0 mm 0.00 in0.0 mm
03:33 AM 31.1°F-0.5°C 35.9°F2.2°C 90% Calm Calm -- 29.56 in1001.0 mb 0.00 in0.0 mm 0.00 in0.0 mm 0.00 in0.0 mm
03:36 AM 31.1°F-0.5°C 35.8°F2.1°C 90% Calm Calm -- 29.56 in1001.0 mb 0.00 in0.0 mm 0.00 in0.0 mm 0.00 in0.0 mm
03:39 AM 31.0°F-0.6°C 35.9°F2.2°C 90% Calm Calm -- 29.56 in1001.0 mb 0.00 in0.0 mm 0.00 in0.0 mm 0.00 in0.0 mm
03:42 AM 31.2°F-0.4°C 35.6°F2.0°C 90% Calm Calm -- 29.56 in1001.0 mb 0.00 in0.0 mm 0.00 in0.0 mm 0.00 in0.0 mm
03:45 AM 31.2°F-0.4°C 36.0°F2.2°C 90% Calm Calm -- 29.56 in1001.0 mb 0.00 in0.0 mm 0.00 in0.0 mm 0.00 in0.0 mm
03:48 AM 31.2°F-0.4°C 35.9°F2.2°C 90% Calm Calm -- 29.56 in1001.0 mb 0.00 in0.0 mm 0.00 in0.0 mm 0.00 in0.0 mm
03:51 AM 31.1°F-0.5°C 35.8°F2.1°C 90% Calm Calm -- 29.56 in1001.0 mb 0.00 in0.0 mm 0.00 in0.0 mm 0.00 in0.0 mm
03:54 AM 31.4°F-0.3°C 35.9°F2.2°C 90% Calm Calm -- 29.56 in1001.0 mb 0.00 in0.0 mm 0.00 in0.0 mm 0.00 in0.0 mm
04:00 AM 31.4°F-0.3°C 35.6°F2.0°C 89% Calm Calm -- 29.56 in1001.0 mb 0.00 in0.0 mm 0.00 in0.0 mm 0.00 in0.0 mm
04:03 AM 31.3°F-0.4°C 35.8°F2.1°C 90% Calm Calm -- 29.56 in1001.0 mb 0.00 in0.0 mm 0.00 in0.0 mm 0.00 in0.0 mm
04:06 AM 31.4°F-0.3°C 35.9°F2.2°C 90% Calm Calm -- 29.56 in1001.0 mb 0.00 in0.0 mm 0.00 in0.0 mm 0.00 in0.0 mm
04:09 AM 31.3°F-0.4°C 35.8°F2.1°C 90% Calm Calm -- 29.56 in1001.0 mb 0.00 in0.0 mm 0.00 in0.0 mm 0.00 in0.0 mm
04:12 AM 31.3°F-0.4°C 36.0°F2.2°C 90% Calm Calm -- 29.56 in1001.0 mb 0.00 in0.0 mm 0.00 in0.0 mm 0.00 in0.0 mm
04:15 AM 31.3°F-0.4°C 35.8°F2.1°C 90% Calm Calm -- 29.56 in1001.0 mb 0.00 in0.0 mm 0.00 in0.0 mm 0.00 in0.0 mm
04:18 AM 31.3°F-0.4°C 35.7°F2.1°C 90% Calm Calm -- 29.56 in1001.0 mb 0.00 in0.0 mm 0.00 in0.0 mm 0.00 in0.0 mm
04:21 AM 31.3°F-0.4°C 35.8°F2.1°C 90% Calm Calm -- 29.56 in1001.0 mb 0.00 in0.0 mm 0.00 in0.0 mm 0.00 in0.0 mm
04:24 AM 31.4°F-0.3°C 36.0°F2.2°C 90% Calm Calm -- 29.56 in1001.0 mb 0.00 in0.0 mm 0.00 in0.0 mm 0.00 in0.0 mm
04:27 AM 31.4°F-0.3°C 35.8°F2.1°C 89% Calm Calm -- 29.56 in1001.0 mb 0.00 in0.0 mm 0.00 in0.0 mm 0.00 in0.0 mm
04:30 AM 31.4°F-0.3°C 36.1°F2.3°C 90% 0.8 mph W1.3 kmh W 0.8 mph1.3 kmh 29.56 in1001.0 mb 0.00 in0.0 mm 0.00 in0.0 mm 0.00 in0.0 mm
04:33 AM 31.4°F-0.3°C 35.8°F2.1°C 90% Calm Calm -- 29.56 in1001.0 mb 0.00 in0.0 mm 0.00 in0.0 mm 0.00 in0.0 mm
04:36 AM 31.6°F-0.2°C 36.1°F2.3°C 90% Calm Calm -- 29.56 in1001.0 mb 0.00 in0.0 mm 0.00 in0.0 mm 0.00 in0.0 mm
04:39 AM 31.4°F-0.3°C 36.0°F2.2°C 90% 2.8 mph NNW4.5 kmh NNW 2.8 mph4.5 kmh 29.56 in1001.0 mb 0.00 in0.0 mm 0.00 in0.0 mm 0.00 in0.0 mm
04:42 AM 31.6°F-0.2°C 35.8°F2.1°C 90% 0.4 mph W0.6 kmh W 0.4 mph0.6 kmh 29.56 in1001.0 mb 0.00 in0.0 mm 0.00 in0.0 mm 0.00 in0.0 mm
04:45 AM 31.4°F-0.3°C 35.7°F2.1°C 90% Calm Calm -- 29.56 in1001.0 mb 0.00 in0.0 mm 0.00 in0.0 mm 0.00 in0.0 mm
04:48 AM 31.6°F-0.2°C 36.1°F2.3°C 90% Calm Calm -- 29.56 in1001.0 mb 0.00 in0.0 mm 0.00 in0.0 mm 0.00 in0.0 mm
04:51 AM 31.6°F-0.2°C 36.0°F2.2°C 91% Calm Calm -- 29.55 in1000.7 mb 0.00 in0.0 mm 0.00 in0.0 mm 0.00 in0.0 mm
04:54 AM 31.6°F-0.2°C 36.1°F2.3°C 90% Calm Calm -- 29.56 in1001.0 mb 0.00 in0.0 mm 0.00 in0.0 mm 0.00 in0.0 mm
04:57 AM 31.4°F-0.3°C 35.9°F2.2°C 90% Calm Calm -- 29.56 in1001.0 mb 0.00 in0.0 mm 0.00 in0.0 mm 0.00 in0.0 mm
05:00 AM 31.6°F-0.2°C 35.9°F2.2°C 90% Calm Calm -- 29.55 in1000.7 mb 0.00 in0.0 mm 0.00 in0.0 mm 0.00 in0.0 mm
05:03 AM 31.7°F-0.2°C 35.8°F2.1°C 90% Calm Calm -- 29.55 in1000.7 mb 0.00 in0.0 mm 0.00 in0.0 mm 0.00 in0.0 mm
05:06 AM 31.6°F-0.2°C 36.0°F2.2°C 90% Calm Calm -- 29.55 in1000.7 mb 0.00 in0.0 mm 0.00 in0.0 mm 0.00 in0.0 mm
05:09 AM 31.6°F-0.2°C 36.0°F2.2°C 90% Calm Calm -- 29.55 in1000.7 mb 0.00 in0.0 mm 0.00 in0.0 mm 0.00 in0.0 mm
05:12 AM 31.6°F-0.2°C 36.0°F2.2°C 90% Calm Calm -- 29.55 in1000.7 mb 0.00 in0.0 mm 0.00 in0.0 mm 0.00 in0.0 mm
05:15 AM 31.6°F-0.2°C 36.0°F2.2°C 90% Calm Calm -- 29.55 in1000.7 mb 0.00 in0.0 mm 0.00 in0.0 mm 0.00 in0.0 mm
05:18 AM 31.6°F-0.2°C 36.2°F2.3°C 90% Calm Calm -- 29.55 in1000.7 mb 0.00 in0.0 mm 0.00 in0.0 mm 0.00 in0.0 mm
05:21 AM 31.6°F-0.2°C 36.0°F2.2°C 90% Calm Calm -- 29.55 in1000.7 mb 0.00 in0.0 mm 0.00 in0.0 mm 0.00 in0.0 mm
05:24 AM 31.4°F-0.3°C 35.9°F2.2°C 90% Calm Calm -- 29.55 in1000.7 mb 0.00 in0.0 mm 0.00 in0.0 mm 0.00 in0.0 mm
05:27 AM 31.6°F-0.2°C 35.6°F2.0°C 89% Calm Calm -- 29.55 in1000.7 mb 0.00 in0.0 mm 0.00 in0.0 mm 0.00 in0.0 mm
05:30 AM 31.4°F-0.3°C 36.0°F2.2°C 90% Calm Calm -- 29.55 in1000.7 mb 0.00 in0.0 mm 0.00 in0.0 mm 0.00 in0.0 mm
05:33 AM 31.2°F-0.4°C 35.6°F2.0°C 90% Calm Calm -- 29.55 in1000.7 mb 0.00 in0.0 mm 0.00 in0.0 mm 0.00 in0.0 mm
05:36 AM 31.1°F-0.5°C 35.8°F2.1°C 90% Calm Calm -- 29.55 in1000.7 mb 0.00 in0.0 mm 0.00 in0.0 mm 0.00 in0.0 mm
05:39 AM 30.9°F-0.6°C 35.7°F2.1°C 90% 0.4 mph W0.6 kmh W 0.4 mph0.6 kmh 29.55 in1000.7 mb 0.00 in0.0 mm 0.00 in0.0 mm 0.00 in0.0 mm
05:42 AM 30.9°F-0.6°C 35.3°F1.8°C 89% Calm Calm -- 29.55 in1000.7 mb 0.00 in0.0 mm 0.00 in0.0 mm 0.00 in0.0 mm
05:45 AM 30.9°F-0.6°C 35.7°F2.1°C 90% Calm Calm -- 29.55 in1000.7 mb 0.00 in0.0 mm 0.00 in0.0 mm 0.00 in0.0 mm
05:48 AM 31.0°F-0.6°C 35.6°F2.0°C 90% Calm Calm -- 29.55 in1000.7 mb 0.00 in0.0 mm 0.00 in0.0 mm 0.00 in0.0 mm
05:51 AM 31.1°F-0.5°C 35.8°F2.1°C 90% Calm Calm -- 29.55 in1000.7 mb 0.00 in0.0 mm 0.00 in0.0 mm 0.00 in0.0 mm
05:54 AM 31.1°F-0.5°C 35.5°F1.9°C 90% Calm Calm -- 29.55 in1000.7 mb 0.00 in0.0 mm 0.00 in0.0 mm 0.00 in0.0 mm
05:57 AM 31.1°F-0.5°C 35.6°F2.0°C 90% Calm Calm -- 29.55 in1000.7 mb 0.00 in0.0 mm 0.00 in0.0 mm 0.00 in0.0 mm
06:00 AM 31.2°F-0.4°C 35.9°F2.2°C 90% Calm Calm -- 29.55 in1000.7 mb 0.00 in0.0 mm 0.00 in0.0 mm 0.00 in0.0 mm
06:03 AM 31.2°F-0.4°C 35.8°F2.1°C 90% Calm Calm -- 29.55 in1000.7 mb 0.00 in0.0 mm 0.00 in0.0 mm 0.00 in0.0 mm
06:06 AM 31.2°F-0.4°C 35.5°F1.9°C 89% Calm Calm -- 29.55 in1000.7 mb 0.00 in0.0 mm 0.00 in0.0 mm 0.00 in0.0 mm
06:09 AM 31.2°F-0.4°C 35.7°F2.1°C 90% Calm Calm -- 29.55 in1000.7 mb 0.00 in0.0 mm 0.00 in0.0 mm 0.00 in0.0 mm
06:12 AM 31.2°F-0.4°C 35.7°F2.1°C 90% Calm Calm -- 29.55 in1000.7 mb 0.00 in0.0 mm 0.00 in0.0 mm 0.00 in0.0 mm
06:15 AM 31.1°F-0.5°C 35.7°F2.1°C 90% Calm Calm -- 29.55 in1000.7 mb 0.00 in0.0 mm 0.00 in0.0 mm 0.00 in0.0 mm
06:18 AM 31.1°F-0.5°C 35.5°F1.9°C 90% Calm Calm -- 29.55 in1000.7 mb 0.00 in0.0 mm 0.00 in0.0 mm 0.00 in0.0 mm
06:21 AM 31.1°F-0.5°C 35.4°F1.9°C 89% Calm Calm -- 29.55 in1000.7 mb 0.00 in0.0 mm 0.00 in0.0 mm 0.00 in0.0 mm
06:24 AM 31.0°F-0.6°C 35.6°F2.0°C 90% Calm Calm -- 29.55 in1000.7 mb 0.00 in0.0 mm 0.00 in0.0 mm 0.00 in0.0 mm
06:27 AM 31.1°F-0.5°C 35.5°F1.9°C 90% Calm Calm -- 29.55 in1000.7 mb 0.00 in0.0 mm 0.00 in0.0 mm 0.00 in0.0 mm
06:30 AM 31.2°F-0.4°C 35.7°F2.1°C 90% Calm Calm -- 29.55 in1000.7 mb 0.00 in0.0 mm 0.00 in0.0 mm 0.00 in0.0 mm
06:33 AM 31.2°F-0.4°C 35.7°F2.1°C 90% Calm Calm -- 29.55 in1000.7 mb 0.00 in0.0 mm 0.00 in0.0 mm 0.00 in0.0 mm
06:36 AM 31.2°F-0.4°C 35.6°F2.0°C 90% Calm Calm -- 29.55 in1000.7 mb 0.00 in0.0 mm 0.00 in0.0 mm 0.00 in0.0 mm
06:39 AM 31.3°F-0.4°C 36.0°F2.2°C 90% Calm Calm -- 29.55 in1000.7 mb 0.00 in0.0 mm 0.00 in0.0 mm 0.00 in0.0 mm
06:42 AM 31.2°F-0.4°C 35.8°F2.1°C 90% Calm Calm -- 29.55 in1000.7 mb 0.00 in0.0 mm 0.00 in0.0 mm 0.00 in0.0 mm
06:45 AM 31.2°F-0.4°C 35.9°F2.2°C 90% Calm Calm -- 29.55 in1000.7 mb 0.00 in0.0 mm 0.00 in0.0 mm 0.00 in0.0 mm
06:48 AM 31.2°F-0.4°C 35.5°F1.9°C 89% Calm Calm -- 29.55 in1000.7 mb 0.00 in0.0 mm 0.00 in0.0 mm 0.00 in0.0 mm
06:51 AM 31.1°F-0.5°C 35.5°F1.9°C 89% Calm Calm -- 29.55 in1000.7 mb 0.00 in0.0 mm 0.00 in0.0 mm 0.00 in0.0 mm
06:54 AM 31.1°F-0.5°C 35.6°F2.0°C 90% Calm Calm -- 29.55 in1000.7 mb 0.00 in0.0 mm 0.00 in0.0 mm 0.00 in0.0 mm
06:57 AM 31.0°F-0.6°C 35.5°F1.9°C 89% Calm Calm -- 29.55 in1000.7 mb 0.00 in0.0 mm 0.00 in0.0 mm 0.00 in0.0 mm
07:00 AM 30.9°F-0.6°C 35.5°F1.9°C 90% Calm Calm -- 29.55 in1000.7 mb 0.00 in0.0 mm 0.00 in0.0 mm 0.00 in0.0 mm
07:03 AM 31.0°F-0.6°C 35.6°F2.0°C 90% Calm Calm -- 29.55 in1000.7 mb 0.00 in0.0 mm 0.00 in0.0 mm 0.00 in0.0 mm
07:06 AM 31.0°F-0.6°C 35.4°F1.9°C 89% Calm Calm -- 29.55 in1000.7 mb 0.00 in0.0 mm 0.00 in0.0 mm 0.00 in0.0 mm
07:12 AM 31.0°F-0.6°C 35.3°F1.8°C 90% Calm Calm -- 29.55 in1000.7 mb 0.00 in0.0 mm 0.00 in0.0 mm 0.00 in0.0 mm
07:15 AM 31.1°F-0.5°C 35.5°F1.9°C 89% Calm Calm -- 29.54 in1000.3 mb 0.00 in0.0 mm 0.00 in0.0 mm 0.00 in0.0 mm
07:18 AM 31.1°F-0.5°C 35.3°F1.8°C 90% Calm Calm -- 29.54 in1000.3 mb 0.00 in0.0 mm 0.00 in0.0 mm 0.00 in0.0 mm
07:21 AM 31.1°F-0.5°C 35.5°F1.9°C 90% Calm Calm -- 29.55 in1000.7 mb 0.00 in0.0 mm 0.00 in0.0 mm 0.00 in0.0 mm
07:24 AM 31.1°F-0.5°C 35.1°F1.7°C 88% Calm Calm -- 29.55 in1000.7 mb 0.00 in0.0 mm 0.00 in0.0 mm 0.00 in0.0 mm
07:27 AM 31.1°F-0.5°C 35.4°F1.9°C 89% Calm Calm -- 29.55 in1000.7 mb 0.00 in0.0 mm 0.00 in0.0 mm 0.00 in0.0 mm
07:30 AM 31.1°F-0.5°C 35.3°F1.8°C 90% Calm Calm -- 29.54 in1000.3 mb 0.00 in0.0 mm 0.00 in0.0 mm 0.00 in0.0 mm
07:33 AM 31.1°F-0.5°C 35.5°F1.9°C 90% Calm Calm -- 29.54 in1000.3 mb 0.00 in0.0 mm 0.00 in0.0 mm 0.00 in0.0 mm
07:39 AM 31.0°F-0.6°C 35.3°F1.8°C 90% Calm Calm -- 29.55 in1000.7 mb 0.00 in0.0 mm 0.00 in0.0 mm 0.00 in0.0 mm
07:42 AM 31.0°F-0.6°C 35.3°F1.8°C 89% Calm Calm -- 29.55 in1000.7 mb 0.00 in0.0 mm 0.00 in0.0 mm 0.00 in0.0 mm
07:45 AM 31.0°F-0.6°C 35.5°F1.9°C 90% Calm Calm -- 29.54 in1000.3 mb 0.00 in0.0 mm 0.00 in0.0 mm 0.00 in0.0 mm
07:48 AM 31.0°F-0.6°C 35.0°F1.7°C 88% Calm Calm -- 29.54 in1000.3 mb 0.00 in0.0 mm 0.00 in0.0 mm 0.00 in0.0 mm
07:51 AM 31.0°F-0.6°C 35.1°F1.7°C 88% Calm Calm -- 29.55 in1000.7 mb 0.00 in0.0 mm 0.00 in0.0 mm 0.00 in0.0 mm
07:54 AM 31.0°F-0.6°C 35.6°F2.0°C 90% Calm Calm -- 29.55 in1000.7 mb 0.00 in0.0 mm 0.00 in0.0 mm 0.00 in0.0 mm
07:57 AM 31.0°F-0.6°C 35.1°F1.7°C 89% Calm Calm -- 29.55 in1000.7 mb 0.00 in0.0 mm 0.00 in0.0 mm 0.00 in0.0 mm
08:00 AM 31.0°F-0.6°C 35.5°F1.9°C 90% Calm Calm -- 29.54 in1000.3 mb 0.00 in0.0 mm 0.00 in0.0 mm 0.00 in0.0 mm
08:03 AM 31.0°F-0.6°C 35.3°F1.8°C 90% Calm Calm -- 29.55 in1000.7 mb 0.00 in0.0 mm 0.00 in0.0 mm 0.00 in0.0 mm
08:06 AM 31.0°F-0.6°C 35.0°F1.7°C 90% Calm Calm -- 29.55 in1000.7 mb 0.00 in0.0 mm 0.00 in0.0 mm 0.00 in0.0 mm
08:09 AM 31.1°F-0.5°C 35.2°F1.8°C 89% Calm Calm -- 29.54 in1000.3 mb 0.00 in0.0 mm 0.00 in0.0 mm 0.00 in0.0 mm
08:12 AM 31.2°F-0.4°C 35.3°F1.8°C 90% Calm Calm -- 29.55 in1000.7 mb 0.00 in0.0 mm 0.00 in0.0 mm 0.00 in0.0 mm
08:15 AM 31.1°F-0.5°C 35.1°F1.7°C 90% Calm Calm -- 29.54 in1000.3 mb 0.00 in0.0 mm 0.00 in0.0 mm 0.00 in0.0 mm
08:21 AM 31.2°F-0.4°C 35.0°F1.7°C 89% Calm Calm -- 29.55 in1000.7 mb 0.00 in0.0 mm 0.00 in0.0 mm 0.00 in0.0 mm
08:24 AM 31.2°F-0.4°C 35.2°F1.8°C 90% Calm Calm -- 29.55 in1000.7 mb 0.00 in0.0 mm 0.00 in0.0 mm 0.00 in0.0 mm
08:27 AM 31.2°F-0.4°C 35.3°F1.8°C 91% Calm Calm -- 29.55 in1000.7 mb 0.00 in0.0 mm 0.00 in0.0 mm 0.00 in0.0 mm
08:30 AM 31.3°F-0.4°C 35.3°F1.8°C 90% Calm Calm -- 29.55 in1000.7 mb 0.00 in0.0 mm 0.00 in0.0 mm 0.00 in0.0 mm
08:33 AM 31.3°F-0.4°C 35.4°F1.9°C 90% Calm Calm -- 29.55 in1000.7 mb 0.00 in0.0 mm 0.00 in0.0 mm 0.00 in0.0 mm
08:36 AM 31.2°F-0.4°C 35.4°F1.9°C 90% 0.4 mph W0.6 kmh W 0.4 mph0.6 kmh 29.54 in1000.3 mb 0.00 in0.0 mm 0.00 in0.0 mm 0.00 in0.0 mm
08:39 AM 31.3°F-0.4°C 35.4°F1.9°C 90% Calm Calm -- 29.55 in1000.7 mb 0.00 in0.0 mm 0.00 in0.0 mm 0.00 in0.0 mm
08:42 AM 31.3°F-0.4°C 35.6°F2.0°C 90% Calm Calm -- 29.55 in1000.7 mb 0.00 in0.0 mm 0.00 in0.0 mm 0.00 in0.0 mm
08:45 AM 31.4°F-0.3°C 35.4°F1.9°C 90% Calm Calm -- 29.55 in1000.7 mb 0.00 in0.0 mm 0.00 in0.0 mm 0.00 in0.0 mm
08:48 AM 31.6°F-0.2°C 35.2°F1.8°C 90% Calm Calm -- 29.55 in1000.7 mb 0.00 in0.0 mm 0.00 in0.0 mm 0.00 in0.0 mm
08:51 AM 31.6°F-0.2°C 35.1°F1.7°C 89% Calm Calm -- 29.55 in1000.7 mb 0.00 in0.0 mm 0.00 in0.0 mm 0.00 in0.0 mm
08:54 AM 31.7°F-0.2°C 35.6°F2.0°C 90% Calm Calm -- 29.55 in1000.7 mb 0.00 in0.0 mm 0.00 in0.0 mm 0.00 in0.0 mm
08:57 AM 31.7°F-0.2°C 35.6°F2.0°C 90% Calm Calm -- 29.55 in1000.7 mb 0.00 in0.0 mm 0.00 in0.0 mm 0.00 in0.0 mm
09:00 AM 31.8°F-0.1°C 35.5°F1.9°C 89% Calm Calm -- 29.55 in1000.7 mb 0.00 in0.0 mm 0.00 in0.0 mm 0.00 in0.0 mm
09:03 AM 31.8°F-0.1°C 35.7°F2.1°C 90% Calm Calm -- 29.55 in1000.7 mb 0.00 in0.0 mm 0.00 in0.0 mm 0.00 in0.0 mm
09:06 AM 31.9°F-0.1°C 35.8°F2.1°C 90% Calm Calm -- 29.55 in1000.7 mb 0.00 in0.0 mm 0.00 in0.0 mm 0.00 in0.0 mm
09:09 AM 32.1°F0.1°C 35.7°F2.1°C 90% Calm Calm -- 29.54 in1000.3 mb 0.00 in0.0 mm 0.00 in0.0 mm 0.00 in0.0 mm
09:12 AM 32.6°F0.3°C 35.8°F2.1°C 90% Calm Calm -- 29.54 in1000.3 mb 0.00 in0.0 mm 0.00 in0.0 mm 0.00 in0.0 mm
09:15 AM 32.7°F0.4°C 35.9°F2.2°C 90% Calm Calm -- 29.54 in1000.3 mb 0.00 in0.0 mm 0.00 in0.0 mm 0.00 in0.0 mm
09:18 AM 32.6°F0.3°C 36.0°F2.2°C 90% Calm Calm -- 29.54 in1000.3 mb 0.00 in0.0 mm 0.00 in0.0 mm 0.00 in0.0 mm
09:21 AM 32.6°F0.3°C 35.9°F2.2°C 90% Calm Calm -- 29.55 in1000.7 mb 0.00 in0.0 mm 0.00 in0.0 mm 0.00 in0.0 mm
09:24 AM 32.6°F0.3°C 36.0°F2.2°C 89% Calm Calm -- 29.54 in1000.3 mb 0.00 in0.0 mm 0.00 in0.0 mm 0.00 in0.0 mm
09:27 AM 32.7°F0.4°C 35.8°F2.1°C 89% Calm Calm -- 29.54 in1000.3 mb 0.00 in0.0 mm 0.00 in0.0 mm 0.00 in0.0 mm
09:30 AM 32.7°F0.4°C 36.1°F2.3°C 89% Calm Calm -- 29.54 in1000.3 mb 0.00 in0.0 mm 0.00 in0.0 mm 0.00 in0.0 mm
09:33 AM 32.9°F0.5°C 36.1°F2.3°C 89% Calm Calm -- 29.54 in1000.3 mb 0.00 in0.0 mm 0.00 in0.0 mm 0.00 in0.0 mm
09:39 AM 32.7°F0.4°C 35.9°F2.2°C 89% Calm Calm -- 29.54 in1000.3 mb 0.00 in0.0 mm 0.00 in0.0 mm 0.00 in0.0 mm
09:42 AM 32.6°F0.3°C 35.9°F2.2°C 88% Calm Calm -- 29.54 in1000.3 mb 0.00 in0.0 mm 0.00 in0.0 mm 0.00 in0.0 mm
09:45 AM 32.5°F0.3°C 35.7°F2.1°C 89% Calm Calm -- 29.54 in1000.3 mb 0.00 in0.0 mm 0.00 in0.0 mm 0.00 in0.0 mm
09:48 AM 32.3°F0.2°C 35.5°F1.9°C 88% Calm Calm -- 29.54 in1000.3 mb 0.00 in0.0 mm 0.00 in0.0 mm 0.00 in0.0 mm
09:51 AM 32.6°F0.3°C 35.3°F1.8°C 88% Calm Calm -- 29.55 in1000.7 mb 0.00 in0.0 mm 0.00 in0.0 mm 0.00 in0.0 mm
09:54 AM 32.8°F0.4°C 35.7°F2.1°C 88% Calm Calm -- 29.55 in1000.7 mb 0.00 in0.0 mm 0.00 in0.0 mm 0.00 in0.0 mm
09:57 AM 32.7°F0.4°C 35.5°F1.9°C 88% Calm Calm -- 29.54 in1000.3 mb 0.00 in0.0 mm 0.00 in0.0 mm 0.00 in0.0 mm
10:00 AM 33.0°F0.6°C 35.4°F1.9°C 87% Calm Calm -- 29.55 in1000.7 mb 0.00 in0.0 mm 0.00 in0.0 mm 0.00 in0.0 mm
10:03 AM 33.1°F0.6°C 35.6°F2.0°C 88% Calm Calm -- 29.55 in1000.7 mb 0.00 in0.0 mm 0.00 in0.0 mm 0.00 in0.0 mm
10:06 AM 33.0°F0.6°C 35.8°F2.1°C 88% Calm Calm -- 29.54 in1000.3 mb 0.00 in0.0 mm 0.00 in0.0 mm 0.00 in0.0 mm
10:09 AM 33.2°F0.7°C 36.0°F2.2°C 88% Calm Calm -- 29.55 in1000.7 mb 0.00 in0.0 mm 0.00 in0.0 mm 0.00 in0.0 mm
10:12 AM 32.9°F0.5°C 35.8°F2.1°C 88% Calm Calm -- 29.54 in1000.3 mb 0.00 in0.0 mm 0.00 in0.0 mm 0.00 in0.0 mm
10:15 AM 33.1°F0.6°C 35.8°F2.1°C 87% Calm Calm -- 29.55 in1000.7 mb 0.00 in0.0 mm 0.00 in0.0 mm 0.00 in0.0 mm
10:18 AM 33.0°F0.6°C 35.7°F2.1°C 87% Calm Calm -- 29.55 in1000.7 mb 0.00 in0.0 mm 0.00 in0.0 mm 0.00 in0.0 mm
10:21 AM 33.0°F0.6°C 36.0°F2.2°C 87% Calm Calm -- 29.55 in1000.7 mb 0.00 in0.0 mm 0.00 in0.0 mm 0.00 in0.0 mm
10:24 AM 32.9°F0.5°C 35.9°F2.2°C 87% Calm Calm -- 29.55 in1000.7 mb 0.00 in0.0 mm 0.00 in0.0 mm 0.00 in0.0 mm
10:27 AM 33.0°F0.6°C 35.7°F2.1°C 86% Calm Calm -- 29.55 in1000.7 mb 0.00 in0.0 mm 0.00 in0.0 mm 0.00 in0.0 mm
10:30 AM 33.2°F0.7°C 35.6°F2.0°C 87% Calm Calm -- 29.55 in1000.7 mb 0.00 in0.0 mm 0.00 in0.0 mm 0.00 in0.0 mm
10:33 AM 33.2°F0.7°C 35.9°F2.2°C 87% Calm Calm -- 29.55 in1000.7 mb 0.00 in0.0 mm 0.00 in0.0 mm 0.00 in0.0 mm
10:36 AM 33.2°F0.7°C 35.6°F2.0°C 86% Calm Calm -- 29.55 in1000.7 mb 0.00 in0.0 mm 0.00 in0.0 mm 0.00 in0.0 mm
10:39 AM 33.0°F0.6°C 35.6°F2.0°C 87% Calm Calm -- 29.55 in1000.7 mb 0.00 in0.0 mm 0.00 in0.0 mm 0.00 in0.0 mm
10:42 AM 33.2°F0.7°C 35.7°F2.1°C 86% Calm Calm -- 29.55 in1000.7 mb 0.00 in0.0 mm 0.00 in0.0 mm 0.00 in0.0 mm
10:45 AM 33.0°F0.6°C 35.8°F2.1°C 87% Calm Calm -- 29.54 in1000.3 mb 0.00 in0.0 mm 0.00 in0.0 mm 0.00 in0.0 mm
10:48 AM 32.9°F0.5°C 35.5°F1.9°C 86% Calm Calm -- 29.55 in1000.7 mb 0.00 in0.0 mm 0.00 in0.0 mm 0.00 in0.0 mm
10:51 AM 33.0°F0.6°C 35.7°F2.1°C 86% Calm Calm -- 29.55 in1000.7 mb 0.00 in0.0 mm 0.00 in0.0 mm 0.00 in0.0 mm
10:54 AM 33.0°F0.6°C 35.4°F1.9°C 85% Calm Calm -- 29.55 in1000.7 mb 0.00 in0.0 mm 0.00 in0.0 mm 0.00 in0.0 mm
10:57 AM 32.8°F0.4°C 35.6°F2.0°C 86% Calm Calm -- 29.54 in1000.3 mb 0.00 in0.0 mm 0.00 in0.0 mm 0.00 in0.0 mm
11:00 AM 32.9°F0.5°C 35.7°F2.1°C 87% Calm Calm -- 29.54 in1000.3 mb 0.00 in0.0 mm 0.00 in0.0 mm 0.00 in0.0 mm
11:03 AM 32.8°F0.4°C 35.7°F2.1°C 86% Calm Calm -- 29.54 in1000.3 mb 0.00 in0.0 mm 0.00 in0.0 mm 0.00 in0.0 mm
11:06 AM 32.8°F0.4°C 35.8°F2.1°C 86% Calm Calm -- 29.54 in1000.3 mb 0.00 in0.0 mm 0.00 in0.0 mm 0.00 in0.0 mm
11:09 AM 32.7°F0.4°C 35.5°F1.9°C 86% Calm Calm -- 29.54 in1000.3 mb 0.00 in0.0 mm 0.00 in0.0 mm 0.00 in0.0 mm
11:12 AM 32.6°F0.3°C 35.4°F1.9°C 86% Calm Calm -- 29.54 in1000.3 mb 0.00 in0.0 mm 0.00 in0.0 mm 0.00 in0.0 mm
11:15 AM 32.6°F0.3°C 35.6°F2.0°C 86% Calm Calm -- 29.54 in1000.3 mb 0.00 in0.0 mm 0.00 in0.0 mm 0.00 in0.0 mm
11:18 AM 32.7°F0.4°C 35.8°F2.1°C 87% Calm Calm -- 29.54 in1000.3 mb 0.00 in0.0 mm 0.00 in0.0 mm 0.00 in0.0 mm
11:21 AM 32.7°F0.4°C 35.2°F1.8°C 85% Calm Calm -- 29.54 in1000.3 mb 0.00 in0.0 mm 0.00 in0.0 mm 0.00 in0.0 mm
11:24 AM 32.8°F0.4°C 35.6°F2.0°C 87% Calm Calm -- 29.54 in1000.3 mb 0.00 in0.0 mm 0.00 in0.0 mm 0.00 in0.0 mm
11:27 AM 32.8°F0.4°C 35.4°F1.9°C 86% Calm Calm -- 29.54 in1000.3 mb 0.00 in0.0 mm 0.00 in0.0 mm 0.00 in0.0 mm
11:30 AM 32.5°F0.3°C 35.7°F2.1°C 86% Calm Calm -- 29.54 in1000.3 mb 0.00 in0.0 mm 0.00 in0.0 mm 0.00 in0.0 mm
11:33 AM 32.6°F0.3°C 35.7°F2.1°C 86% Calm Calm -- 29.53 in1000.0 mb 0.00 in0.0 mm 0.00 in0.0 mm 0.00 in0.0 mm
11:36 AM 32.6°F0.3°C 35.4°F1.9°C 86% Calm Calm -- 29.53 in1000.0 mb 0.00 in0.0 mm 0.00 in0.0 mm 0.00 in0.0 mm
11:39 AM 32.6°F0.3°C 35.7°F2.1°C 87% Calm Calm -- 29.53 in1000.0 mb 0.00 in0.0 mm 0.00 in0.0 mm 0.00 in0.0 mm
11:42 AM 32.8°F0.4°C 35.7°F2.1°C 86% Calm Calm -- 29.53 in1000.0 mb 0.00 in0.0 mm 0.00 in0.0 mm 0.00 in0.0 mm
11:45 AM 32.9°F0.5°C 35.8°F2.1°C 87% Calm Calm -- 29.53 in1000.0 mb 0.00 in0.0 mm 0.00 in0.0 mm 0.00 in0.0 mm
11:48 AM 33.0°F0.6°C 35.8°F2.1°C 87% Calm Calm -- 29.53 in1000.0 mb 0.00 in0.0 mm 0.00 in0.0 mm 0.00 in0.0 mm
11:51 AM 32.9°F0.5°C 35.8°F2.1°C 87% Calm Calm -- 29.53 in1000.0 mb 0.00 in0.0 mm 0.00 in0.0 mm 0.00 in0.0 mm
11:54 AM 33.0°F0.6°C 36.0°F2.2°C 87% Calm Calm -- 29.53 in1000.0 mb 0.00 in0.0 mm 0.00 in0.0 mm 0.00 in0.0 mm
11:57 AM 33.0°F0.6°C 36.0°F2.2°C 87% Calm Calm -- 29.53 in1000.0 mb 0.00 in0.0 mm 0.00 in0.0 mm 0.00 in0.0 mm
12:00 PM 33.0°F0.6°C 35.8°F2.1°C 87% Calm Calm -- 29.53 in1000.0 mb 0.00 in0.0 mm 0.00 in0.0 mm 0.00 in0.0 mm
12:03 PM 32.9°F0.5°C 36.1°F2.3°C 87% Calm Calm -- 29.53 in1000.0 mb 0.00 in0.0 mm 0.00 in0.0 mm 0.00 in0.0 mm
12:06 PM 32.9°F0.5°C 36.1°F2.3°C 87% Calm Calm -- 29.53 in1000.0 mb 0.00 in0.0 mm 0.00 in0.0 mm 0.00 in0.0 mm
12:12 PM 32.8°F0.4°C 35.7°F2.1°C 87% Calm Calm -- 29.54 in1000.3 mb 0.00 in0.0 mm 0.00 in0.0 mm 0.00 in0.0 mm
12:15 PM 32.9°F0.5°C 36.1°F2.3°C 87% Calm Calm -- 29.54 in1000.3 mb 0.00 in0.0 mm 0.00 in0.0 mm 0.00 in0.0 mm
12:18 PM 32.8°F0.4°C 35.9°F2.2°C 87% Calm Calm -- 29.53 in1000.0 mb 0.00 in0.0 mm 0.00 in0.0 mm 0.00 in0.0 mm
12:21 PM 33.1°F0.6°C 36.1°F2.3°C 87% Calm Calm -- 29.53 in1000.0 mb 0.00 in0.0 mm 0.00 in0.0 mm 0.00 in0.0 mm
12:24 PM 33.1°F0.6°C 36.0°F2.2°C 87% Calm Calm -- 29.54 in1000.3 mb 0.00 in0.0 mm 0.00 in0.0 mm 0.00 in0.0 mm
12:27 PM 33.1°F0.6°C 36.3°F2.4°C 87% Calm Calm -- 29.53 in1000.0 mb 0.00 in0.0 mm 0.00 in0.0 mm 0.00 in0.0 mm
12:30 PM 33.1°F0.6°C 36.5°F2.5°C 88% Calm Calm -- 29.53 in1000.0 mb 0.00 in0.0 mm 0.00 in0.0 mm 0.00 in0.0 mm
12:36 PM 33.4°F0.8°C 36.4°F2.4°C 87% Calm Calm -- 29.53 in1000.0 mb 0.00 in0.0 mm 0.00 in0.0 mm 0.00 in0.0 mm
12:39 PM 33.4°F0.8°C 36.5°F2.5°C 88% Calm Calm -- 29.53 in1000.0 mb 0.00 in0.0 mm 0.00 in0.0 mm 0.00 in0.0 mm
12:42 PM 33.5°F0.8°C 36.4°F2.4°C 87% Calm Calm -- 29.53 in1000.0 mb 0.00 in0.0 mm 0.00 in0.0 mm 0.00 in0.0 mm
12:45 PM 33.6°F0.9°C 36.2°F2.3°C 87% Calm Calm -- 29.53 in1000.0 mb 0.00 in0.0 mm 0.00 in0.0 mm 0.00 in0.0 mm
12:48 PM 33.6°F0.9°C 36.1°F2.3°C 87% Calm Calm -- 29.53 in1000.0 mb 0.00 in0.0 mm 0.00 in0.0 mm 0.00 in0.0 mm
12:51 PM 33.7°F0.9°C 36.3°F2.4°C 87% Calm Calm -- 29.53 in1000.0 mb 0.00 in0.0 mm 0.00 in0.0 mm 0.00 in0.0 mm
12:54 PM 33.5°F0.8°C 36.7°F2.6°C 87% Calm Calm -- 29.53 in1000.0 mb 0.00 in0.0 mm 0.00 in0.0 mm 0.00 in0.0 mm
12:57 PM 33.6°F0.9°C 36.5°F2.5°C 87% Calm Calm -- 29.53 in1000.0 mb 0.00 in0.0 mm 0.00 in0.0 mm 0.00 in0.0 mm
01:00 PM 33.9°F1.1°C 36.6°F2.6°C 88% Calm Calm -- 29.53 in1000.0 mb 0.00 in0.0 mm 0.00 in0.0 mm 0.00 in0.0 mm
01:03 PM 33.8°F1.0°C 36.4°F2.4°C 87% Calm Calm -- 29.53 in1000.0 mb 0.00 in0.0 mm 0.00 in0.0 mm 0.00 in0.0 mm
01:06 PM 33.8°F1.0°C 36.5°F2.5°C 88% Calm Calm -- 29.52 in999.7 mb 0.00 in0.0 mm 0.00 in0.0 mm 0.00 in0.0 mm
01:09 PM 33.7°F0.9°C 36.5°F2.5°C 87% Calm Calm -- 29.53 in1000.0 mb 0.00 in0.0 mm 0.00 in0.0 mm 0.00 in0.0 mm
01:12 PM 33.6°F0.9°C 36.2°F2.3°C 86% Calm Calm -- 29.53 in1000.0 mb 0.00 in0.0 mm 0.00 in0.0 mm 0.00 in0.0 mm
01:15 PM 33.5°F0.8°C 36.3°F2.4°C 87% Calm Calm -- 29.53 in1000.0 mb 0.00 in0.0 mm 0.00 in0.0 mm 0.00 in0.0 mm
01:18 PM 33.6°F0.9°C 36.7°F2.6°C 87% Calm Calm -- 29.53 in1000.0 mb 0.00 in0.0 mm 0.00 in0.0 mm 0.00 in0.0 mm
01:21 PM 33.2°F0.7°C 36.5°F2.5°C 87% Calm Calm -- 29.53 in1000.0 mb 0.00 in0.0 mm 0.00 in0.0 mm 0.00 in0.0 mm
01:24 PM 33.4°F0.8°C 36.4°F2.4°C 87% 1.6 mph WNW2.6 kmh WNW 1.6 mph2.6 kmh 29.53 in1000.0 mb 0.00 in0.0 mm 0.00 in0.0 mm 0.00 in0.0 mm
01:27 PM 33.4°F0.8°C 36.6°F2.6°C 87% Calm Calm -- 29.53 in1000.0 mb 0.00 in0.0 mm 0.00 in0.0 mm 0.00 in0.0 mm
01:30 PM 33.5°F0.8°C 36.7°F2.6°C 88% 0.4 mph NW0.6 kmh NW 0.4 mph0.6 kmh 29.53 in1000.0 mb 0.00 in0.0 mm 0.00 in0.0 mm 0.00 in0.0 mm
01:33 PM 33.7°F0.9°C 36.6°F2.6°C 88% 0.4 mph NW0.6 kmh NW 0.4 mph0.6 kmh 29.53 in1000.0 mb 0.00 in0.0 mm 0.00 in0.0 mm 0.00 in0.0 mm
01:36 PM 33.5°F0.8°C 36.4°F2.4°C 87% Calm Calm -- 29.52 in999.7 mb 0.00 in0.0 mm 0.00 in0.0 mm 0.00 in0.0 mm
01:39 PM 33.8°F1.0°C 36.7°F2.6°C 88% 0.4 mph NW0.6 kmh NW 0.4 mph0.6 kmh 29.53 in1000.0 mb 0.00 in0.0 mm 0.00 in0.0 mm 0.00 in0.0 mm
01:42 PM 33.9°F1.1°C 36.7°F2.6°C 88% Calm Calm -- 29.52 in999.7 mb 0.00 in0.0 mm 0.00 in0.0 mm 0.00 in0.0 mm
01:45 PM 33.7°F0.9°C 36.5°F2.5°C 87% 2.0 mph NW3.2 kmh NW 2.0 mph3.2 kmh 29.53 in1000.0 mb 0.00 in0.0 mm 0.00 in0.0 mm 0.00 in0.0 mm
01:48 PM 33.5°F0.8°C 36.6°F2.6°C 88% 2.0 mph NNW3.2 kmh NNW 2.0 mph3.2 kmh 29.53 in1000.0 mb 0.00 in0.0 mm 0.00 in0.0 mm 0.00 in0.0 mm
01:51 PM 33.6°F0.9°C 36.7°F2.6°C 88% 1.2 mph NW1.9 kmh NW 1.2 mph1.9 kmh 29.53 in1000.0 mb 0.00 in0.0 mm 0.00 in0.0 mm 0.00 in0.0 mm
01:54 PM 33.6°F0.9°C 36.6°F2.6°C 88% Calm Calm -- 29.53 in1000.0 mb 0.00 in0.0 mm 0.00 in0.0 mm 0.00 in0.0 mm
01:57 PM 33.7°F0.9°C 36.8°F2.7°C 88% Calm Calm -- 29.53 in1000.0 mb 0.00 in0.0 mm 0.00 in0.0 mm 0.00 in0.0 mm
02:00 PM 33.7°F0.9°C 36.7°F2.6°C 87% Calm Calm -- 29.53 in1000.0 mb 0.00 in0.0 mm 0.00 in0.0 mm 0.00 in0.0 mm
02:03 PM 33.8°F1.0°C 36.8°F2.7°C 87% Calm Calm -- 29.53 in1000.0 mb 0.00 in0.0 mm 0.00 in0.0 mm 0.00 in0.0 mm
02:06 PM 33.7°F0.9°C 36.7°F2.6°C 87% Calm Calm -- 29.53 in1000.0 mb 0.00 in0.0 mm 0.00 in0.0 mm 0.00 in0.0 mm
02:09 PM 33.6°F0.9°C 36.5°F2.5°C 87% 0.8 mph NW1.3 kmh NW 0.8 mph1.3 kmh 29.53 in1000.0 mb 0.00 in0.0 mm 0.00 in0.0 mm 0.00 in0.0 mm
02:12 PM 33.5°F0.8°C 36.8°F2.7°C 87% 0.4 mph NW0.6 kmh NW 0.4 mph0.6 kmh 29.53 in1000.0 mb 0.00 in0.0 mm 0.00 in0.0 mm 0.00 in0.0 mm
02:15 PM 33.4°F0.8°C 36.6°F2.6°C 87% 2.4 mph NNW3.9 kmh NNW 2.4 mph3.9 kmh 29.53 in1000.0 mb 0.00 in0.0 mm 0.00 in0.0 mm 0.00 in0.0 mm
02:18 PM 33.2°F0.7°C 36.4°F2.4°C 87% 6.0 mph NNW9.7 kmh NNW 6.0 mph9.7 kmh 29.53 in1000.0 mb 0.00 in0.0 mm 0.00 in0.0 mm 0.00 in0.0 mm
02:21 PM 33.2°F0.7°C 36.3°F2.4°C 87% 0.4 mph NW0.6 kmh NW 0.4 mph0.6 kmh 29.53 in1000.0 mb 0.00 in0.0 mm 0.00 in0.0 mm 0.00 in0.0 mm
02:24 PM 33.1°F0.6°C 36.5°F2.5°C 87% 1.2 mph NW1.9 kmh NW 1.2 mph1.9 kmh 29.53 in1000.0 mb 0.00 in0.0 mm 0.00 in0.0 mm 0.00 in0.0 mm
02:27 PM 33.1°F0.6°C 36.0°F2.2°C 86% 2.4 mph 3.9 kmh 2.4 mph3.9 kmh 29.53 in1000.0 mb 0.00 in0.0 mm 0.00 in0.0 mm 0.00 in0.0 mm
02:30 PM 33.0°F0.6°C 36.4°F2.4°C 87% 1.6 mph NNW2.6 kmh NNW 1.6 mph2.6 kmh 29.52 in999.7 mb 0.00 in0.0 mm 0.00 in0.0 mm 0.00 in0.0 mm
02:33 PM 33.0°F0.6°C 36.1°F2.3°C 87% 2.0 mph WNW3.2 kmh WNW 2.0 mph3.2 kmh 29.53 in1000.0 mb 0.00 in0.0 mm 0.00 in0.0 mm 0.00 in0.0 mm
02:39 PM 32.8°F0.4°C 36.4°F2.4°C 87% 2.8 mph NNW4.5 kmh NNW 2.9 mph4.7 kmh 29.53 in1000.0 mb 0.00 in0.0 mm 0.00 in0.0 mm 0.00 in0.0 mm
02:42 PM 32.9°F0.5°C 36.1°F2.3°C 87% Calm Calm -- 29.53 in1000.0 mb 0.00 in0.0 mm 0.00 in0.0 mm 0.00 in0.0 mm
02:45 PM 33.0°F0.6°C 36.1°F2.3°C 87% 2.0 mph NW3.2 kmh NW 2.0 mph3.2 kmh 29.53 in1000.0 mb 0.00 in0.0 mm 0.00 in0.0 mm 0.00 in0.0 mm
02:48 PM 33.2°F0.7°C 35.9°F2.2°C 86% 1.2 mph NW1.9 kmh NW 1.2 mph1.9 kmh 29.53 in1000.0 mb 0.00 in0.0 mm 0.00 in0.0 mm 0.00 in0.0 mm
02:51 PM 33.0°F0.6°C 36.3°F2.4°C 87% 2.4 mph 3.9 kmh 2.4 mph3.9 kmh 29.53 in1000.0 mb 0.00 in0.0 mm 0.00 in0.0 mm 0.00 in0.0 mm
02:54 PM 32.9°F0.5°C 36.4°F2.4°C 87% 2.0 mph NNW3.2 kmh NNW 2.0 mph3.2 kmh 29.53 in1000.0 mb 0.00 in0.0 mm 0.00 in0.0 mm 0.00 in0.0 mm
02:57 PM 33.1°F0.6°C 36.1°F2.3°C 87% Calm Calm -- 29.53 in1000.0 mb 0.00 in0.0 mm 0.00 in0.0 mm 0.00 in0.0 mm
03:00 PM 33.1°F0.6°C 36.2°F2.3°C 87% Calm Calm -- 29.53 in1000.0 mb 0.00 in0.0 mm 0.00 in0.0 mm 0.00 in0.0 mm
03:03 PM 33.2°F0.7°C 36.5°F2.5°C 87% Calm Calm -- 29.53 in1000.0 mb 0.00 in0.0 mm 0.00 in0.0 mm 0.00 in0.0 mm
03:06 PM 33.4°F0.8°C 36.2°F2.3°C 86% Calm Calm -- 29.53 in1000.0 mb 0.00 in0.0 mm 0.00 in0.0 mm 0.00 in0.0 mm
03:09 PM 33.5°F0.8°C 36.6°F2.6°C 87% Calm Calm -- 29.53 in1000.0 mb 0.00 in0.0 mm 0.00 in0.0 mm 0.00 in0.0 mm
03:12 PM 33.5°F0.8°C 36.5°F2.5°C 87% Calm Calm -- 29.53 in1000.0 mb 0.00 in0.0 mm 0.00 in0.0 mm 0.00 in0.0 mm
03:15 PM 33.5°F0.8°C 36.6°F2.6°C 87% Calm Calm -- 29.53 in1000.0 mb 0.00 in0.0 mm 0.00 in0.0 mm 0.00 in0.0 mm
03:18 PM 33.6°F0.9°C 36.3°F2.4°C 86% Calm Calm -- 29.54 in1000.3 mb 0.00 in0.0 mm 0.00 in0.0 mm 0.00 in0.0 mm
03:21 PM 33.5°F0.8°C 36.6°F2.6°C 87% 1.6 mph W2.6 kmh W 1.6 mph2.6 kmh 29.54 in1000.3 mb 0.00 in0.0 mm 0.00 in0.0 mm 0.00 in0.0 mm
03:24 PM 33.5°F0.8°C 36.7°F2.6°C 87% 1.6 mph WNW2.6 kmh WNW 1.6 mph2.6 kmh 29.54 in1000.3 mb 0.00 in0.0 mm 0.00 in0.0 mm 0.00 in0.0 mm
03:27 PM 33.5°F0.8°C 36.1°F2.3°C 86% 1.6 mph W2.6 kmh W 1.6 mph2.6 kmh 29.54 in1000.3 mb 0.00 in0.0 mm 0.00 in0.0 mm 0.00 in0.0 mm
03:30 PM 33.5°F0.8°C 36.6°F2.6°C 87% 0.4 mph W0.6 kmh W 0.4 mph0.6 kmh 29.55 in1000.7 mb 0.00 in0.0 mm 0.00 in0.0 mm 0.00 in0.0 mm
03:33 PM 33.1°F0.6°C 36.4°F2.4°C 87% 0.8 mph W1.3 kmh W 0.8 mph1.3 kmh 29.54 in1000.3 mb 0.00 in0.0 mm 0.00 in0.0 mm 0.00 in0.0 mm
03:36 PM 33.0°F0.6°C 36.5°F2.5°C 86% Calm Calm -- 29.55 in1000.7 mb 0.00 in0.0 mm 0.00 in0.0 mm 0.00 in0.0 mm
03:39 PM 32.7°F0.4°C 36.2°F2.3°C 86% 2.0 mph NW3.2 kmh NW 2.0 mph3.2 kmh 29.54 in1000.3 mb 0.00 in0.0 mm 0.00 in0.0 mm 0.00 in0.0 mm
03:42 PM 32.6°F0.3°C 35.9°F2.2°C 85% Calm Calm -- 29.55 in1000.7 mb 0.00 in0.0 mm 0.00 in0.0 mm 0.00 in0.0 mm
03:48 PM 32.5°F0.3°C 36.0°F2.2°C 86% Calm Calm -- 29.55 in1000.7 mb 0.00 in0.0 mm 0.00 in0.0 mm 0.00 in0.0 mm
03:51 PM 32.5°F0.3°C 35.9°F2.2°C 86% 0.8 mph WNW1.3 kmh WNW 0.8 mph1.3 kmh 29.55 in1000.7 mb 0.00 in0.0 mm 0.00 in0.0 mm 0.00 in0.0 mm
03:54 PM 32.5°F0.3°C 36.0°F2.2°C 86% Calm Calm -- 29.55 in1000.7 mb 0.00 in0.0 mm 0.00 in0.0 mm 0.00 in0.0 mm
03:57 PM 32.3°F0.2°C 35.9°F2.2°C 86% 2.0 mph NW3.2 kmh NW 2.0 mph3.2 kmh 29.55 in1000.7 mb 0.00 in0.0 mm 0.00 in0.0 mm 0.00 in0.0 mm
04:00 PM 32.3°F0.2°C 35.9°F2.2°C 86% Calm Calm -- 29.55 in1000.7 mb 0.00 in0.0 mm 0.00 in0.0 mm 0.00 in0.0 mm
04:03 PM 32.2°F0.1°C 35.8°F2.1°C 86% Calm Calm -- 29.55 in1000.7 mb 0.00 in0.0 mm 0.00 in0.0 mm 0.00 in0.0 mm
04:06 PM 32.2°F0.1°C 35.9°F2.2°C 86% Calm Calm -- 29.55 in1000.7 mb 0.00 in0.0 mm 0.00 in0.0 mm 0.00 in0.0 mm
04:09 PM 32.2°F0.1°C 35.8°F2.1°C 86% 0.8 mph NW1.3 kmh NW 0.8 mph1.3 kmh 29.55 in1000.7 mb 0.00 in0.0 mm 0.00 in0.0 mm 0.00 in0.0 mm
04:12 PM 32.2°F0.1°C 35.8°F2.1°C 86% Calm Calm -- 29.55 in1000.7 mb 0.00 in0.0 mm 0.00 in0.0 mm 0.00 in0.0 mm
04:15 PM 32.3°F0.2°C 35.8°F2.1°C 86% 0.4 mph NW0.6 kmh NW 0.4 mph0.6 kmh 29.55 in1000.7 mb 0.00 in0.0 mm 0.00 in0.0 mm 0.00 in0.0 mm
04:18 PM 32.3°F0.2°C 35.8°F2.1°C 86% Calm Calm -- 29.55 in1000.7 mb 0.00 in0.0 mm 0.00 in0.0 mm 0.00 in0.0 mm
04:24 PM 32.3°F0.2°C 35.8°F2.1°C 86% 2.8 mph WSW4.5 kmh WSW 2.9 mph4.7 kmh 29.55 in1000.7 mb 0.00 in0.0 mm 0.00 in0.0 mm 0.00 in0.0 mm
04:27 PM 32.1°F0.1°C 35.9°F2.2°C 86% Calm Calm -- 29.55 in1000.7 mb 0.00 in0.0 mm 0.00 in0.0 mm 0.00 in0.0 mm
04:30 PM 31.9°F-0.1°C 35.5°F1.9°C 86% 0.4 mph W0.6 kmh W 0.4 mph0.6 kmh 29.55 in1000.7 mb 0.00 in0.0 mm 0.00 in0.0 mm 0.00 in0.0 mm
04:33 PM 31.9°F-0.1°C 35.5°F1.9°C 86% Calm Calm -- 29.55 in1000.7 mb 0.00 in0.0 mm 0.00 in0.0 mm 0.00 in0.0 mm
04:36 PM 31.9°F-0.1°C 35.5°F1.9°C 86% 1.6 mph NW2.6 kmh NW 1.6 mph2.6 kmh 29.55 in1000.7 mb 0.00 in0.0 mm 0.00 in0.0 mm 0.00 in0.0 mm
04:42 PM 31.8°F-0.1°C 35.6°F2.0°C 86% 0.4 mph W0.6 kmh W 0.4 mph0.6 kmh 29.56 in1001.0 mb 0.00 in0.0 mm 0.00 in0.0 mm 0.00 in0.0 mm
04:45 PM 31.9°F-0.1°C 35.5°F1.9°C 86% Calm Calm -- 29.56 in1001.0 mb 0.00 in0.0 mm 0.00 in0.0 mm 0.00 in0.0 mm
04:48 PM 31.9°F-0.1°C 35.6°F2.0°C 86% 0.4 mph W0.6 kmh W 0.4 mph0.6 kmh 29.56 in1001.0 mb 0.00 in0.0 mm 0.00 in0.0 mm 0.00 in0.0 mm
04:54 PM 31.9°F-0.1°C 35.2°F1.8°C 86% 0.4 mph WNW0.6 kmh WNW 0.4 mph0.6 kmh 29.56 in1001.0 mb 0.00 in0.0 mm 0.00 in0.0 mm 0.00 in0.0 mm
04:57 PM 31.9°F-0.1°C 35.2°F1.8°C 86% Calm Calm -- 29.56 in1001.0 mb 0.00 in0.0 mm 0.00 in0.0 mm 0.00 in0.0 mm
05:00 PM 31.9°F-0.1°C 35.4°F1.9°C 86% Calm Calm -- 29.56 in1001.0 mb 0.00 in0.0 mm 0.00 in0.0 mm 0.00 in0.0 mm
05:03 PM 31.9°F-0.1°C 35.5°F1.9°C 87% 0.4 mph NNW0.6 kmh NNW 0.4 mph0.6 kmh 29.56 in1001.0 mb 0.00 in0.0 mm 0.00 in0.0 mm 0.00 in0.0 mm
05:06 PM 31.8°F-0.1°C 35.7°F2.1°C 87% 0.8 mph W1.3 kmh W 0.8 mph1.3 kmh 29.56 in1001.0 mb 0.00 in0.0 mm 0.00 in0.0 mm 0.00 in0.0 mm
05:09 PM 31.8°F-0.1°C 35.4°F1.9°C 86% Calm Calm -- 29.56 in1001.0 mb 0.00 in0.0 mm 0.00 in0.0 mm 0.00 in0.0 mm
05:12 PM 31.7°F-0.2°C 35.5°F1.9°C 86% 0.4 mph W0.6 kmh W 0.4 mph0.6 kmh 29.56 in1001.0 mb 0.00 in0.0 mm 0.00 in0.0 mm 0.00 in0.0 mm
05:18 PM 31.4°F-0.3°C 35.2°F1.8°C 86% Calm Calm -- 29.56 in1001.0 mb 0.00 in0.0 mm 0.00 in0.0 mm 0.00 in0.0 mm
05:21 PM 31.4°F-0.3°C 35.3°F1.8°C 86% Calm Calm -- 29.56 in1001.0 mb 0.00 in0.0 mm 0.00 in0.0 mm 0.00 in0.0 mm
05:24 PM 31.4°F-0.3°C 35.1°F1.7°C 86% Calm Calm -- 29.56 in1001.0 mb 0.00 in0.0 mm 0.00 in0.0 mm 0.00 in0.0 mm
05:27 PM 31.4°F-0.3°C 35.4°F1.9°C 86% Calm Calm -- 29.56 in1001.0 mb 0.00 in0.0 mm 0.00 in0.0 mm 0.00 in0.0 mm
05:30 PM 31.4°F-0.3°C 35.1°F1.7°C 86% Calm Calm -- 29.56 in1001.0 mb 0.00 in0.0 mm 0.00 in0.0 mm 0.00 in0.0 mm
05:33 PM 31.4°F-0.3°C 35.4°F1.9°C 87% Calm Calm -- 29.56 in1001.0 mb 0.00 in0.0 mm 0.00 in0.0 mm 0.00 in0.0 mm
05:36 PM 31.4°F-0.3°C 35.4°F1.9°C 86% Calm Calm -- 29.56 in1001.0 mb 0.00 in0.0 mm 0.00 in0.0 mm 0.00 in0.0 mm
05:39 PM 31.4°F-0.3°C 35.3°F1.8°C 86% Calm Calm -- 29.56 in1001.0 mb 0.00 in0.0 mm 0.00 in0.0 mm 0.00 in0.0 mm
05:42 PM 31.3°F-0.4°C 35.5°F1.9°C 87% Calm Calm -- 29.56 in1001.0 mb 0.00 in0.0 mm 0.00 in0.0 mm 0.00 in0.0 mm
05:45 PM 31.3°F-0.4°C 35.0°F1.7°C 85% Calm Calm -- 29.56 in1001.0 mb 0.00 in0.0 mm 0.00 in0.0 mm 0.00 in0.0 mm
05:48 PM 31.3°F-0.4°C 35.3°F1.8°C 87% Calm Calm -- 29.56 in1001.0 mb 0.00 in0.0 mm 0.00 in0.0 mm 0.00 in0.0 mm
05:51 PM 31.2°F-0.4°C 35.2°F1.8°C 86% Calm Calm -- 29.57 in1001.4 mb 0.00 in0.0 mm 0.00 in0.0 mm 0.00 in0.0 mm
05:54 PM 31.1°F-0.5°C 35.2°F1.8°C 87% Calm Calm -- 29.57 in1001.4 mb 0.00 in0.0 mm 0.00 in0.0 mm 0.00 in0.0 mm
05:57 PM 31.0°F-0.6°C 35.2°F1.8°C 87% Calm Calm -- 29.57 in1001.4 mb 0.00 in0.0 mm 0.00 in0.0 mm 0.00 in0.0 mm
06:00 PM 30.9°F-0.6°C 35.2°F1.8°C 87% Calm Calm -- 29.57 in1001.4 mb 0.00 in0.0 mm 0.00 in0.0 mm 0.00 in0.0 mm
06:03 PM 30.7°F-0.7°C 35.1°F1.7°C 87% Calm Calm -- 29.57 in1001.4 mb 0.00 in0.0 mm 0.00 in0.0 mm 0.00 in0.0 mm
06:06 PM 30.5°F-0.8°C 35.3°F1.8°C 87% Calm Calm -- 29.57 in1001.4 mb 0.00 in0.0 mm 0.00 in0.0 mm 0.00 in0.0 mm
06:09 PM 30.5°F-0.8°C 35.0°F1.7°C 87% Calm Calm -- 29.57 in1001.4 mb 0.00 in0.0 mm 0.00 in0.0 mm 0.00 in0.0 mm
06:12 PM 30.5°F-0.8°C 35.0°F1.7°C 86% Calm Calm -- 29.57 in1001.4 mb 0.00 in0.0 mm 0.00 in0.0 mm 0.00 in0.0 mm
06:15 PM 30.7°F-0.7°C 34.9°F1.6°C 86% Calm Calm -- 29.57 in1001.4 mb 0.00 in0.0 mm 0.00 in0.0 mm 0.00 in0.0 mm
06:18 PM 30.7°F-0.7°C 35.2°F1.8°C 87% Calm Calm -- 29.57 in1001.4 mb 0.00 in0.0 mm 0.00 in0.0 mm 0.00 in0.0 mm
06:21 PM 30.7°F-0.7°C 35.2°F1.8°C 87% Calm Calm -- 29.57 in1001.4 mb 0.00 in0.0 mm 0.00 in0.0 mm 0.00 in0.0 mm
06:24 PM 30.7°F-0.7°C 34.9°F1.6°C 87% Calm Calm -- 29.57 in1001.4 mb 0.00 in0.0 mm 0.00 in0.0 mm 0.00 in0.0 mm
06:27 PM 30.8°F-0.7°C 34.9°F1.6°C 86% Calm Calm -- 29.57 in1001.4 mb 0.00 in0.0 mm 0.00 in0.0 mm 0.00 in0.0 mm
06:30 PM 30.8°F-0.7°C 34.8°F1.6°C 87% Calm Calm -- 29.57 in1001.4 mb 0.00 in0.0 mm 0.00 in0.0 mm 0.00 in0.0 mm
06:33 PM 30.9°F-0.6°C 35.0°F1.7°C 87% Calm Calm -- 29.57 in1001.4 mb 0.00 in0.0 mm 0.00 in0.0 mm 0.00 in0.0 mm
06:36 PM 30.9°F-0.6°C 35.0°F1.7°C 87% Calm Calm -- 29.57 in1001.4 mb 0.00 in0.0 mm 0.00 in0.0 mm 0.00 in0.0 mm
06:39 PM 31.0°F-0.6°C 35.1°F1.7°C 87% Calm Calm -- 29.57 in1001.4 mb 0.00 in0.0 mm 0.00 in0.0 mm 0.00 in0.0 mm
06:42 PM 30.9°F-0.6°C 35.0°F1.7°C 87% Calm Calm -- 29.57 in1001.4 mb 0.00 in0.0 mm 0.00 in0.0 mm 0.00 in0.0 mm
06:45 PM 31.0°F-0.6°C 35.1°F1.7°C 87% 0.4 mph WNW0.6 kmh WNW 0.4 mph0.6 kmh 29.57 in1001.4 mb 0.00 in0.0 mm 0.00 in0.0 mm 0.00 in0.0 mm
06:48 PM 31.1°F-0.5°C 35.0°F1.7°C 87% Calm Calm -- 29.57 in1001.4 mb 0.00 in0.0 mm 0.00 in0.0 mm 0.00 in0.0 mm
06:51 PM 31.0°F-0.6°C 34.8°F1.6°C 87% Calm Calm -- 29.57 in1001.4 mb 0.00 in0.0 mm 0.00 in0.0 mm 0.00 in0.0 mm
06:54 PM 31.0°F-0.6°C 35.1°F1.7°C 87% Calm Calm -- 29.57 in1001.4 mb 0.00 in0.0 mm 0.00 in0.0 mm 0.00 in0.0 mm
06:57 PM 30.8°F-0.7°C 34.8°F1.6°C 87% Calm Calm -- 29.58 in1001.7 mb 0.00 in0.0 mm 0.00 in0.0 mm 0.00 in0.0 mm
07:00 PM 30.5°F-0.8°C 34.9°F1.6°C 87% Calm Calm -- 29.58 in1001.7 mb 0.00 in0.0 mm 0.00 in0.0 mm 0.00 in0.0 mm
07:03 PM 30.5°F-0.8°C 34.9°F1.6°C 87% Calm Calm -- 29.58 in1001.7 mb 0.00 in0.0 mm 0.00 in0.0 mm 0.00 in0.0 mm
07:06 PM 30.4°F-0.9°C 35.1°F1.7°C 88% Calm Calm -- 29.58 in1001.7 mb 0.00 in0.0 mm 0.00 in0.0 mm 0.00 in0.0 mm
07:09 PM 30.3°F-0.9°C 34.7°F1.5°C 87% Calm Calm -- 29.58 in1001.7 mb 0.00 in0.0 mm 0.00 in0.0 mm 0.00 in0.0 mm
07:12 PM 30.3°F-0.9°C 35.0°F1.7°C 87% Calm Calm -- 29.58 in1001.7 mb 0.00 in0.0 mm 0.00 in0.0 mm 0.00 in0.0 mm
07:15 PM 30.5°F-0.8°C 34.7°F1.5°C 87% Calm Calm -- 29.58 in1001.7 mb 0.00 in0.0 mm 0.00 in0.0 mm 0.00 in0.0 mm
07:18 PM 30.5°F-0.8°C 34.8°F1.6°C 87% Calm Calm -- 29.58 in1001.7 mb 0.00 in0.0 mm 0.00 in0.0 mm 0.00 in0.0 mm
07:21 PM 30.7°F-0.7°C 34.6°F1.4°C 87% Calm Calm -- 29.58 in1001.7 mb 0.00 in0.0 mm 0.00 in0.0 mm 0.00 in0.0 mm
07:24 PM 30.8°F-0.7°C 34.8°F1.6°C 87% Calm Calm -- 29.59 in1002.0 mb 0.00 in0.0 mm 0.00 in0.0 mm 0.00 in0.0 mm
07:27 PM 30.9°F-0.6°C 34.8°F1.6°C 88% Calm Calm -- 29.59 in1002.0 mb 0.00 in0.0 mm 0.00 in0.0 mm 0.00 in0.0 mm
07:30 PM 30.9°F-0.6°C 34.9°F1.6°C 88% Calm Calm -- 29.59 in1002.0 mb 0.00 in0.0 mm 0.00 in0.0 mm 0.00 in0.0 mm
07:33 PM 30.9°F-0.6°C 34.9°F1.6°C 88% Calm Calm -- 29.59 in1002.0 mb 0.00 in0.0 mm 0.00 in0.0 mm 0.00 in0.0 mm
07:36 PM 31.0°F-0.6°C 34.8°F1.6°C 87% Calm Calm -- 29.59 in1002.0 mb 0.00 in0.0 mm 0.00 in0.0 mm 0.00 in0.0 mm
07:39 PM 31.1°F-0.5°C 34.9°F1.6°C 88% Calm Calm -- 29.59 in1002.0 mb 0.00 in0.0 mm 0.00 in0.0 mm 0.00 in0.0 mm
07:42 PM 31.1°F-0.5°C 34.8°F1.6°C 88% Calm Calm -- 29.59 in1002.0 mb 0.00 in0.0 mm 0.00 in0.0 mm 0.00 in0.0 mm
07:45 PM 31.1°F-0.5°C 34.8°F1.6°C 88% Calm Calm -- 29.59 in1002.0 mb 0.00 in0.0 mm 0.00 in0.0 mm 0.00 in0.0 mm
07:48 PM 31.1°F-0.5°C 35.1°F1.7°C 88% 1.2 mph WSW1.9 kmh WSW 1.2 mph1.9 kmh 29.60 in1002.4 mb 0.00 in0.0 mm 0.00 in0.0 mm 0.00 in0.0 mm
07:51 PM 31.1°F-0.5°C 34.6°F1.4°C 87% 0.8 mph SW1.3 kmh SW 0.8 mph1.3 kmh 29.60 in1002.4 mb 0.00 in0.0 mm 0.00 in0.0 mm 0.00 in0.0 mm
07:54 PM 31.1°F-0.5°C 35.1°F1.7°C 88% Calm Calm -- 29.60 in1002.4 mb 0.00 in0.0 mm 0.00 in0.0 mm 0.00 in0.0 mm
07:57 PM 31.1°F-0.5°C 34.7°F1.5°C 87% Calm Calm -- 29.60 in1002.4 mb 0.00 in0.0 mm 0.00 in0.0 mm 0.00 in0.0 mm
08:00 PM 31.2°F-0.4°C 35.1°F1.7°C 88% Calm Calm -- 29.60 in1002.4 mb 0.00 in0.0 mm 0.00 in0.0 mm 0.00 in0.0 mm
08:03 PM 31.1°F-0.5°C 35.0°F1.7°C 88% Calm Calm -- 29.59 in1002.0 mb 0.00 in0.0 mm 0.00 in0.0 mm 0.00 in0.0 mm
08:06 PM 31.1°F-0.5°C 35.0°F1.7°C 88% Calm Calm -- 29.60 in1002.4 mb 0.00 in0.0 mm 0.00 in0.0 mm 0.00 in0.0 mm
08:09 PM 31.2°F-0.4°C 34.8°F1.6°C 87% Calm Calm -- 29.60 in1002.4 mb 0.00 in0.0 mm 0.00 in0.0 mm 0.00 in0.0 mm
08:12 PM 31.1°F-0.5°C 35.0°F1.7°C 88% Calm Calm -- 29.60 in1002.4 mb 0.00 in0.0 mm 0.00 in0.0 mm 0.00 in0.0 mm
08:15 PM 31.2°F-0.4°C 35.0°F1.7°C 88% Calm Calm -- 29.60 in1002.4 mb 0.00 in0.0 mm 0.00 in0.0 mm 0.00 in0.0 mm
08:18 PM 31.2°F-0.4°C 34.9°F1.6°C 88% Calm Calm -- 29.60 in1002.4 mb 0.00 in0.0 mm 0.00 in0.0 mm 0.00 in0.0 mm
08:21 PM 31.2°F-0.4°C 35.2°F1.8°C 88% Calm Calm -- 29.60 in1002.4 mb 0.00 in0.0 mm 0.00 in0.0 mm 0.00 in0.0 mm
08:24 PM 31.1°F-0.5°C 34.7°F1.5°C 87% Calm Calm -- 29.60 in1002.4 mb 0.00 in0.0 mm 0.00 in0.0 mm 0.00 in0.0 mm
08:27 PM 31.1°F-0.5°C 34.8°F1.6°C 88% Calm Calm -- 29.60 in1002.4 mb 0.00 in0.0 mm 0.00 in0.0 mm 0.00 in0.0 mm
08:30 PM 31.2°F-0.4°C 35.2°F1.8°C 88% Calm Calm -- 29.60 in1002.4 mb 0.00 in0.0 mm 0.00 in0.0 mm 0.00 in0.0 mm
08:33 PM 31.2°F-0.4°C 35.0°F1.7°C 88% Calm Calm -- 29.60 in1002.4 mb 0.00 in0.0 mm 0.00 in0.0 mm 0.00 in0.0 mm
08:36 PM 31.2°F-0.4°C 35.1°F1.7°C 88% Calm Calm -- 29.60 in1002.4 mb 0.00 in0.0 mm 0.00 in0.0 mm 0.00 in0.0 mm
08:39 PM 31.2°F-0.4°C 35.1°F1.7°C 88% Calm Calm -- 29.60 in1002.4 mb 0.00 in0.0 mm 0.00 in0.0 mm 0.00 in0.0 mm
08:42 PM 31.2°F-0.4°C 35.1°F1.7°C 88% Calm Calm -- 29.60 in1002.4 mb 0.00 in0.0 mm 0.00 in0.0 mm 0.00 in0.0 mm
08:45 PM 31.2°F-0.4°C 35.0°F1.7°C 87% Calm Calm -- 29.60 in1002.4 mb 0.00 in0.0 mm 0.00 in0.0 mm 0.00 in0.0 mm
08:48 PM 31.2°F-0.4°C 35.0°F1.7°C 88% Calm Calm -- 29.60 in1002.4 mb 0.00 in0.0 mm 0.00 in0.0 mm 0.00 in0.0 mm
08:51 PM 31.3°F-0.4°C 34.9°F1.6°C 87% Calm Calm -- 29.60 in1002.4 mb 0.00 in0.0 mm 0.00 in0.0 mm 0.00 in0.0 mm
08:54 PM 31.2°F-0.4°C 35.2°F1.8°C 88% Calm Calm -- 29.60 in1002.4 mb 0.00 in0.0 mm 0.00 in0.0 mm 0.00 in0.0 mm
08:57 PM 31.3°F-0.4°C 34.8°F1.6°C 87% Calm Calm -- 29.60 in1002.4 mb 0.00 in0.0 mm 0.00 in0.0 mm 0.00 in0.0 mm
09:00 PM 31.3°F-0.4°C 35.0°F1.7°C 88% Calm Calm -- 29.60 in1002.4 mb 0.00 in0.0 mm 0.00 in0.0 mm 0.00 in0.0 mm
09:03 PM 31.3°F-0.4°C 35.0°F1.7°C 88% Calm Calm -- 29.60 in1002.4 mb 0.00 in0.0 mm 0.00 in0.0 mm 0.00 in0.0 mm
09:06 PM 31.2°F-0.4°C 35.1°F1.7°C 88% Calm Calm -- 29.60 in1002.4 mb 0.00 in0.0 mm 0.00 in0.0 mm 0.00 in0.0 mm
09:09 PM 31.3°F-0.4°C 34.9°F1.6°C 87% Calm Calm -- 29.60 in1002.4 mb 0.00 in0.0 mm 0.00 in0.0 mm 0.00 in0.0 mm
09:12 PM 31.3°F-0.4°C 35.2°F1.8°C 89% Calm Calm -- 29.60 in1002.4 mb 0.00 in0.0 mm 0.00 in0.0 mm 0.00 in0.0 mm
09:15 PM 31.3°F-0.4°C 35.0°F1.7°C 88% Calm Calm -- 29.60 in1002.4 mb 0.00 in0.0 mm 0.00 in0.0 mm 0.00 in0.0 mm
09:18 PM 31.4°F-0.3°C 35.2°F1.8°C 88% Calm Calm -- 29.60 in1002.4 mb 0.00 in0.0 mm 0.00 in0.0 mm 0.00 in0.0 mm
09:21 PM 31.4°F-0.3°C 35.2°F1.8°C 88% Calm Calm -- 29.60 in1002.4 mb 0.00 in0.0 mm 0.00 in0.0 mm 0.00 in0.0 mm
09:24 PM 31.3°F-0.4°C 35.1°F1.7°C 88% Calm Calm -- 29.60 in1002.4 mb 0.00 in0.0 mm 0.00 in0.0 mm 0.00 in0.0 mm
09:27 PM 31.3°F-0.4°C 35.2°F1.8°C 88% Calm Calm -- 29.60 in1002.4 mb 0.00 in0.0 mm 0.00 in0.0 mm 0.00 in0.0 mm
09:30 PM 31.3°F-0.4°C 35.1°F1.7°C 88% Calm Calm -- 29.60 in1002.4 mb 0.00 in0.0 mm 0.00 in0.0 mm 0.00 in0.0 mm
09:33 PM 31.4°F-0.3°C 35.3°F1.8°C 88% Calm Calm -- 29.60 in1002.4 mb 0.00 in0.0 mm 0.00 in0.0 mm 0.00 in0.0 mm
09:36 PM 31.3°F-0.4°C 35.1°F1.7°C 88% Calm Calm -- 29.60 in1002.4 mb 0.00 in0.0 mm 0.00 in0.0 mm 0.00 in0.0 mm
09:39 PM 31.4°F-0.3°C 35.1°F1.7°C 88% Calm Calm -- 29.61 in1002.7 mb 0.00 in0.0 mm 0.00 in0.0 mm 0.00 in0.0 mm
09:42 PM 31.4°F-0.3°C 35.5°F1.9°C 89% Calm Calm -- 29.61 in1002.7 mb 0.00 in0.0 mm 0.00 in0.0 mm 0.00 in0.0 mm
09:45 PM 31.4°F-0.3°C 35.0°F1.7°C 87% Calm Calm -- 29.61 in1002.7 mb 0.00 in0.0 mm 0.00 in0.0 mm 0.00 in0.0 mm
09:48 PM 31.6°F-0.2°C 35.3°F1.8°C 88% Calm Calm -- 29.61 in1002.7 mb 0.00 in0.0 mm 0.00 in0.0 mm 0.00 in0.0 mm
09:51 PM 31.4°F-0.3°C 35.1°F1.7°C 87% Calm Calm -- 29.60 in1002.4 mb 0.00 in0.0 mm 0.00 in0.0 mm 0.00 in0.0 mm
09:54 PM 31.6°F-0.2°C 35.0°F1.7°C 87% Calm Calm -- 29.61 in1002.7 mb 0.00 in0.0 mm 0.00 in0.0 mm 0.00 in0.0 mm
09:57 PM 31.4°F-0.3°C 35.0°F1.7°C 88% Calm Calm -- 29.60 in1002.4 mb 0.00 in0.0 mm 0.00 in0.0 mm 0.00 in0.0 mm
10:00 PM 31.6°F-0.2°C 35.1°F1.7°C 88% Calm Calm -- 29.60 in1002.4 mb 0.00 in0.0 mm 0.00 in0.0 mm 0.00 in0.0 mm
10:03 PM 31.4°F-0.3°C 35.3°F1.8°C 88% Calm Calm -- 29.61 in1002.7 mb 0.00 in0.0 mm 0.00 in0.0 mm 0.00 in0.0 mm
10:06 PM 31.6°F-0.2°C 35.3°F1.8°C 89% Calm Calm -- 29.61 in1002.7 mb 0.00 in0.0 mm 0.00 in0.0 mm 0.00 in0.0 mm
10:09 PM 31.6°F-0.2°C 35.5°F1.9°C 89% Calm Calm -- 29.61 in1002.7 mb 0.00 in0.0 mm 0.00 in0.0 mm 0.00 in0.0 mm
10:12 PM 31.4°F-0.3°C 35.1°F1.7°C 88% Calm Calm -- 29.61 in1002.7 mb 0.00 in0.0 mm 0.00 in0.0 mm 0.00 in0.0 mm
10:15 PM 31.6°F-0.2°C 35.3°F1.8°C 89% Calm Calm -- 29.61 in1002.7 mb 0.00 in0.0 mm 0.00 in0.0 mm 0.00 in0.0 mm
10:18 PM 31.6°F-0.2°C 34.9°F1.6°C 87% Calm Calm -- 29.61 in1002.7 mb 0.00 in0.0 mm 0.00 in0.0 mm 0.00 in0.0 mm
10:21 PM 31.4°F-0.3°C 35.3°F1.8°C 89% Calm Calm -- 29.62 in1003.0 mb 0.00 in0.0 mm 0.00 in0.0 mm 0.00 in0.0 mm
10:24 PM 31.6°F-0.2°C 35.3°F1.8°C 89% Calm Calm -- 29.61 in1002.7 mb 0.00 in0.0 mm 0.00 in0.0 mm 0.00 in0.0 mm
10:27 PM 31.6°F-0.2°C 35.3°F1.8°C 89% Calm Calm -- 29.62 in1003.0 mb 0.00 in0.0 mm 0.00 in0.0 mm 0.00 in0.0 mm
10:30 PM 31.4°F-0.3°C 35.3°F1.8°C 89% Calm Calm -- 29.62 in1003.0 mb 0.00 in0.0 mm 0.00 in0.0 mm 0.00 in0.0 mm
10:33 PM 31.4°F-0.3°C 35.5°F1.9°C 89% Calm Calm -- 29.62 in1003.0 mb 0.00 in0.0 mm 0.00 in0.0 mm 0.00 in0.0 mm
10:36 PM 31.6°F-0.2°C 35.1°F1.7°C 89% Calm Calm -- 29.62 in1003.0 mb 0.00 in0.0 mm 0.00 in0.0 mm 0.00 in0.0 mm
10:39 PM 31.4°F-0.3°C 35.3°F1.8°C 89% Calm Calm -- 29.62 in1003.0 mb 0.00 in0.0 mm 0.00 in0.0 mm 0.00 in0.0 mm
10:42 PM 31.4°F-0.3°C 34.9°F1.6°C 88% Calm Calm -- 29.62 in1003.0 mb 0.00 in0.0 mm 0.00 in0.0 mm 0.00 in0.0 mm
10:45 PM 31.4°F-0.3°C 35.3°F1.8°C 89% Calm Calm -- 29.62 in1003.0 mb 0.00 in0.0 mm 0.00 in0.0 mm 0.00 in0.0 mm
10:48 PM 31.4°F-0.3°C 35.1°F1.7°C 89% Calm Calm -- 29.62 in1003.0 mb 0.00 in0.0 mm 0.00 in0.0 mm 0.00 in0.0 mm
10:51 PM 31.4°F-0.3°C 35.2°F1.8°C 89% Calm Calm -- 29.62 in1003.0 mb 0.00 in0.0 mm 0.00 in0.0 mm 0.00 in0.0 mm
10:54 PM 31.4°F-0.3°C 35.3°F1.8°C 89% Calm Calm -- 29.62 in1003.0 mb 0.00 in0.0 mm 0.00 in0.0 mm 0.00 in0.0 mm
10:57 PM 31.6°F-0.2°C 35.2°F1.8°C 88% Calm Calm -- 29.62 in1003.0 mb 0.00 in0.0 mm 0.00 in0.0 mm 0.00 in0.0 mm
11:00 PM 31.6°F-0.2°C 35.5°F1.9°C 89% Calm Calm -- 29.62 in1003.0 mb 0.00 in0.0 mm 0.00 in0.0 mm 0.00 in0.0 mm
11:03 PM 31.6°F-0.2°C 35.2°F1.8°C 89% Calm Calm -- 29.62 in1003.0 mb 0.00 in0.0 mm 0.00 in0.0 mm 0.00 in0.0 mm
11:06 PM 31.6°F-0.2°C 35.3°F1.8°C 89% Calm Calm -- 29.62 in1003.0 mb 0.00 in0.0 mm 0.00 in0.0 mm 0.00 in0.0 mm
11:09 PM 31.6°F-0.2°C 35.1°F1.7°C 88% Calm Calm -- 29.62 in1003.0 mb 0.00 in0.0 mm 0.00 in0.0 mm 0.00 in0.0 mm
11:12 PM 31.6°F-0.2°C 35.3°F1.8°C 89% Calm Calm -- 29.62 in1003.0 mb 0.00 in0.0 mm 0.00 in0.0 mm 0.00 in0.0 mm
11:15 PM 31.6°F-0.2°C 35.4°F1.9°C 89% Calm Calm -- 29.62 in1003.0 mb 0.00 in0.0 mm 0.00 in0.0 mm 0.00 in0.0 mm
11:18 PM 31.6°F-0.2°C 35.3°F1.8°C 89% Calm Calm -- 29.62 in1003.0 mb 0.00 in0.0 mm 0.00 in0.0 mm 0.00 in0.0 mm
11:21 PM 31.6°F-0.2°C 35.2°F1.8°C 89% Calm Calm -- 29.62 in1003.0 mb 0.00 in0.0 mm 0.00 in0.0 mm 0.00 in0.0 mm
11:24 PM 31.6°F-0.2°C 35.2°F1.8°C 89% Calm Calm -- 29.62 in1003.0 mb 0.00 in0.0 mm 0.00 in0.0 mm 0.00 in0.0 mm
11:27 PM 31.6°F-0.2°C 35.2°F1.8°C 88% Calm Calm -- 29.62 in1003.0 mb 0.00 in0.0 mm 0.00 in0.0 mm 0.00 in0.0 mm
11:30 PM 31.7°F-0.2°C 35.3°F1.8°C 89% Calm Calm -- 29.62 in1003.0 mb 0.00 in0.0 mm 0.00 in0.0 mm 0.00 in0.0 mm
11:33 PM 31.6°F-0.2°C 35.3°F1.8°C 89% Calm Calm -- 29.62 in1003.0 mb 0.00 in0.0 mm 0.00 in0.0 mm 0.00 in0.0 mm
11:36 PM 31.7°F-0.2°C 35.3°F1.8°C 89% Calm Calm -- 29.62 in1003.0 mb 0.00 in0.0 mm 0.00 in0.0 mm 0.00 in0.0 mm
11:39 PM 31.7°F-0.2°C 34.9°F1.6°C 87% Calm Calm -- 29.62 in1003.0 mb 0.00 in0.0 mm 0.00 in0.0 mm 0.00 in0.0 mm
11:42 PM 31.7°F-0.2°C 35.4°F1.9°C 89% Calm Calm -- 29.62 in1003.0 mb 0.00 in0.0 mm 0.00 in0.0 mm 0.00 in0.0 mm
11:45 PM 31.7°F-0.2°C 35.5°F1.9°C 89% Calm Calm -- 29.62 in1003.0 mb 0.00 in0.0 mm 0.00 in0.0 mm 0.00 in0.0 mm
11:48 PM 31.7°F-0.2°C 35.7°F2.1°C 89% Calm Calm -- 29.62 in1003.0 mb 0.00 in0.0 mm 0.00 in0.0 mm 0.00 in0.0 mm
11:51 PM 31.7°F-0.2°C 35.6°F2.0°C 88% Calm Calm -- 29.62 in1003.0 mb 0.00 in0.0 mm 0.00 in0.0 mm 0.00 in0.0 mm
11:54 PM 31.7°F-0.2°C 35.3°F1.8°C 89% Calm Calm -- 29.62 in1003.0 mb 0.00 in0.0 mm 0.00 in0.0 mm 0.00 in0.0 mm
11:57 PM 31.7°F-0.2°C 35.6°F2.0°C 89% Calm Calm -- 29.63 in1003.4 mb 0.00 in0.0 mm 0.00 in0.0 mm 0.00 in0.0 mm